Observation data for Amarillo 7 South Southeast on 07/11/2018      Previous  Date       Current Mesonet Observations  Soil Data  Daily Summary Page  Observations in Plain Language
KAM1 110500Z 18009KT 23/16 A3017 RMK A01 T02260156  RH  064%=      5-min Rain = 0
KAM1 110501Z 18009KT 23/16 A3017 RMK A01 T02270155  RH  064%=      5-min Rain = 0
KAM1 110502Z 18008KT 23/16 A3017 RMK A01 T02270155  RH  064%=      5-min Rain = 0
KAM1 110503Z 18009KT 23/16 A3017 RMK A01 T02270155  RH  064%=      5-min Rain = 0
KAM1 110504Z 18009KT 23/16 A3017 RMK A01 T02270156  RH  064%=      5-min Rain = 0
KAM1 110505Z 17009KT 23/16 A3017 RMK A01 T02270156  RH  064%=      5-min Rain = 0
KAM1 110506Z 17008KT 23/16 A3017 RMK A01 T02270156  RH  064%=      5-min Rain = 0
KAM1 110507Z 17008KT 23/16 A3018 RMK A01 T02270156  RH  064%=      5-min Rain = 0
KAM1 110508Z 17008KT 23/16 A3018 RMK A01 T02260156  RH  064%=      5-min Rain = 0
KAM1 110509Z 17008KT 23/16 A3018 RMK A01 T02250156  RH  065%=      5-min Rain = 0
KAM1 110510Z 17007KT 23/16 A3018 RMK A01 T02250156  RH  065%=      5-min Rain = 0
KAM1 110511Z 17008KT 23/16 A3018 RMK A01 T02250156  RH  065%=      5-min Rain = 0
KAM1 110512Z 18008KT 23/16 A3018 RMK A01 T02250156  RH  065%=      5-min Rain = 0
KAM1 110513Z 17008KT 22/16 A3018 RMK A01 T02240156  RH  065%=      5-min Rain = 0
KAM1 110514Z 18007KT 22/16 A3018 RMK A01 T02240156  RH  065%=      5-min Rain = 0
KAM1 110515Z 18007KT 22/16 A3018 RMK A01 T02240156  RH  065%=      5-min Rain = 0
KAM1 110516Z 18007KT 22/16 A3018 RMK A01 T02240156  RH  065%=      5-min Rain = 0
KAM1 110517Z 18007KT 22/16 A3018 RMK A01 T02230156  RH  066%=      5-min Rain = 0
KAM1 110518Z 18006KT 22/16 A3018 RMK A01 T02230156  RH  066%=      5-min Rain = 0
KAM1 110519Z 18006KT 22/16 A3018 RMK A01 T02220156  RH  066%=      5-min Rain = 0
KAM1 110520Z 18006KT 22/16 A3018 RMK A01 T02220156  RH  066%=      5-min Rain = 0
KAM1 110521Z 18006KT 22/16 A3018 RMK A01 T02220156  RH  066%=      5-min Rain = 0
KAM1 110522Z 18006KT 22/16 A3018 RMK A01 T02220156  RH  066%=      5-min Rain = 0
KAM1 110523Z 18006KT 22/16 A3018 RMK A01 T02210156  RH  066%=      5-min Rain = 0
KAM1 110524Z 18006KT 22/16 A3018 RMK A01 T02210156  RH  066%=      5-min Rain = 0
KAM1 110525Z 18005KT 22/16 A3018 RMK A01 T02210156  RH  066%=      5-min Rain = 0
KAM1 110526Z 18006KT 22/16 A3018 RMK A01 T02210156  RH  066%=      5-min Rain = 0
KAM1 110527Z 18006KT 22/16 A3018 RMK A01 T02210156  RH  067%=      5-min Rain = 0
KAM1 110528Z 19005KT 22/16 A3018 RMK A01 T02200156  RH  067%=      5-min Rain = 0
KAM1 110529Z 18006KT 22/16 A3018 RMK A01 T02190156  RH  067%=      5-min Rain = 0
KAM1 110530Z 18006KT 22/16 A3018 RMK A01 T02190156  RH  067%=      5-min Rain = 0
KAM1 110531Z 18005KT 22/16 A3018 RMK A01 T02190156  RH  067%=      5-min Rain = 0
KAM1 110532Z 18006KT 22/16 A3018 RMK A01 T02190156  RH  067%=      5-min Rain = 0
KAM1 110533Z 18006KT 22/16 A3018 RMK A01 T02190156  RH  067%=      5-min Rain = 0
KAM1 110534Z 18006KT 22/16 A3018 RMK A01 T02180156  RH  068%=      5-min Rain = 0
KAM1 110535Z 17006KT 22/16 A3018 RMK A01 T02180156  RH  068%=      5-min Rain = 0
KAM1 110536Z 17006KT 22/16 A3018 RMK A01 T02170156  RH  068%=      5-min Rain = 0
KAM1 110537Z 17006KT 22/16 A3018 RMK A01 T02170156  RH  068%=      5-min Rain = 0
KAM1 110538Z 17006KT 22/16 A3018 RMK A01 T02170156  RH  068%=      5-min Rain = 0
KAM1 110539Z 17006KT 22/16 A3018 RMK A01 T02170156  RH  068%=      5-min Rain = 0
KAM1 110540Z 17006KT 22/16 A3018 RMK A01 T02170157  RH  069%=      5-min Rain = 0
KAM1 110541Z 16006KT 22/16 A3018 RMK A01 T02170157  RH  069%=      5-min Rain = 0
KAM1 110542Z 16006KT 22/16 A3018 RMK A01 T02170157  RH  069%=      5-min Rain = 0
KAM1 110543Z 16006KT 22/16 A3018 RMK A01 T02170157  RH  069%=      5-min Rain = 0
KAM1 110544Z 17006KT 22/16 A3018 RMK A01 T02170157  RH  069%=      5-min Rain = 0
KAM1 110545Z 17006KT 22/16 A3018 RMK A01 T02170157  RH  069%=      5-min Rain = 0
KAM1 110546Z 16005KT 22/16 A3018 RMK A01 T02170157  RH  069%=      5-min Rain = 0
KAM1 110547Z 17005KT 22/16 A3018 RMK A01 T02170158  RH  069%=      5-min Rain = 0
KAM1 110548Z 17005KT 22/16 A3018 RMK A01 T02160158  RH  069%=      5-min Rain = 0
KAM1 110549Z 16005KT 22/16 A3018 RMK A01 T02160158  RH  070%=      5-min Rain = 0
KAM1 110550Z 16005KT 22/16 A3018 RMK A01 T02150158  RH  070%=      5-min Rain = 0
KAM1 110551Z 16005KT 22/16 A3018 RMK A01 T02150158  RH  070%=      5-min Rain = 0
KAM1 110552Z 17005KT 21/16 A3018 RMK A01 T02140158  RH  070%=      5-min Rain = 0
KAM1 110553Z 18004KT 21/16 A3018 RMK A01 T02140158  RH  070%=      5-min Rain = 0
KAM1 110554Z 18005KT 21/16 A3018 RMK A01 T02130158  RH  071%=      5-min Rain = 0
KAM1 110555Z 18005KT 21/16 A3018 RMK A01 T02120158  RH  071%=      5-min Rain = 0
KAM1 110556Z 18005KT 21/16 A3018 RMK A01 T02110158  RH  072%=      5-min Rain = 0
KAM1 110557Z 17005KT 21/16 A3018 RMK A01 T02110158  RH  072%=      5-min Rain = 0
KAM1 110558Z 17005KT 21/16 A3018 RMK A01 T02100158  RH  072%=      5-min Rain = 0
KAM1 110559Z 17005KT 21/16 A3018 RMK A01 T02110158  RH  072%=      5-min Rain = 0
KAM1 110600Z 17005KT 21/16 A3018 RMK A01 T02110158  RH  072%=      5-min Rain = 0
KAM1 110601Z 17006KT 21/16 A3018 RMK A01 T02120159  RH  072%=      5-min Rain = 0
KAM1 110602Z 18006KT 21/16 A3018 RMK A01 T02110158  RH  072%=      5-min Rain = 0
KAM1 110603Z 17006KT 21/16 A3018 RMK A01 T02110158  RH  072%=      5-min Rain = 0
KAM1 110604Z 17006KT 21/16 A3018 RMK A01 T02100158  RH  072%=      5-min Rain = 0
KAM1 110605Z 16007KT 21/16 A3018 RMK A01 T02100158  RH  072%=      5-min Rain = 0
KAM1 110606Z 15007KT 21/16 A3018 RMK A01 T02100158  RH  072%=      5-min Rain = 0
KAM1 110607Z 15007KT 21/16 A3018 RMK A01 T02100158  RH  072%=      5-min Rain = 0
KAM1 110608Z 15007KT 21/16 A3018 RMK A01 T02110159  RH  072%=      5-min Rain = 0
KAM1 110609Z 14008KT 21/16 A3018 RMK A01 T02120158  RH  072%=      5-min Rain = 0
KAM1 110610Z 14007KT 21/16 A3018 RMK A01 T02120158  RH  071%=      5-min Rain = 0
KAM1 110611Z 15007KT 21/16 A3018 RMK A01 T02120158  RH  071%=      5-min Rain = 0
KAM1 110612Z 17005KT 21/16 A3018 RMK A01 T02120158  RH  071%=      5-min Rain = 0
KAM1 110613Z 19005KT 21/16 A3018 RMK A01 T02120158  RH  071%=      5-min Rain = 0
KAM1 110614Z 19005KT 21/16 A3018 RMK A01 T02110158  RH  072%=      5-min Rain = 0
KAM1 110615Z 19005KT 21/16 A3018 RMK A01 T02090158  RH  073%=      5-min Rain = 0
KAM1 110616Z 17006KT 21/16 A3018 RMK A01 T02090159  RH  073%=      5-min Rain = 0
KAM1 110617Z 16006KT 21/16 A3018 RMK A01 T02090158  RH  073%=      5-min Rain = 0
KAM1 110618Z 15006KT 21/16 A3018 RMK A01 T02110158  RH  072%=      5-min Rain = 0
KAM1 110619Z 15007KT 21/16 A3018 RMK A01 T02140158  RH  070%=      5-min Rain = 0
KAM1 110620Z 14006KT 22/16 A3018 RMK A01 T02160158  RH  069%=      5-min Rain = 0
KAM1 110621Z 13005KT 22/16 A3018 RMK A01 T02180158  RH  069%=      5-min Rain = 0
KAM1 110622Z 14005KT 22/16 A3018 RMK A01 T02190158  RH  068%=      5-min Rain = 0
KAM1 110623Z 14005KT 22/16 A3018 RMK A01 T02170158  RH  069%=      5-min Rain = 0
KAM1 110624Z 15005KT 22/16 A3018 RMK A01 T02160157  RH  069%=      5-min Rain = 0
KAM1 110625Z 16005KT 21/16 A3018 RMK A01 T02140157  RH  070%=      5-min Rain = 0
KAM1 110626Z 17005KT 21/16 A3018 RMK A01 T02130157  RH  070%=      5-min Rain = 0
KAM1 110627Z 18005KT 21/16 A3018 RMK A01 T02120157  RH  071%=      5-min Rain = 0
KAM1 110628Z 19006KT 21/16 A3018 RMK A01 T02110157  RH  071%=      5-min Rain = 0
KAM1 110629Z 18007KT 21/16 A3018 RMK A01 T02100157  RH  072%=      5-min Rain = 0
KAM1 110630Z 17006KT 21/16 A3018 RMK A01 T02090157  RH  072%=      5-min Rain = 0
KAM1 110631Z 17007KT 21/16 A3018 RMK A01 T02100157  RH  072%=      5-min Rain = 0
KAM1 110632Z 17006KT 21/16 A3018 RMK A01 T02100157  RH  072%=      5-min Rain = 0
KAM1 110633Z 17006KT 21/16 A3018 RMK A01 T02090158  RH  072%=      5-min Rain = 0
KAM1 110634Z 17006KT 21/16 A3018 RMK A01 T02090158  RH  072%=      5-min Rain = 0
KAM1 110635Z 17006KT 21/16 A3018 RMK A01 T02090158  RH  072%=      5-min Rain = 0
KAM1 110636Z 16007KT 21/16 A3018 RMK A01 T02090157  RH  072%=      5-min Rain = 0
KAM1 110637Z 16007KT 21/16 A3018 RMK A01 T02090157  RH  072%=      5-min Rain = 0
KAM1 110638Z 16007KT 21/16 A3018 RMK A01 T02100157  RH  072%=      5-min Rain = 0
KAM1 110639Z 17007KT 21/16 A3018 RMK A01 T02100158  RH  072%=      5-min Rain = 0
KAM1 110640Z 17007KT 21/16 A3018 RMK A01 T02100158  RH  072%=      5-min Rain = 0
KAM1 110641Z 17007KT 21/16 A3018 RMK A01 T02110158  RH  072%=      5-min Rain = 0
KAM1 110642Z 17007KT 21/16 A3017 RMK A01 T02110158  RH  072%=      5-min Rain = 0
KAM1 110643Z 18006KT 21/16 A3017 RMK A01 T02110158  RH  072%=      5-min Rain = 0
KAM1 110644Z 17006KT 21/16 A3017 RMK A01 T02110158  RH  072%=      5-min Rain = 0
KAM1 110645Z 17008KT 21/16 A3017 RMK A01 T02110159  RH  072%=      5-min Rain = 0
KAM1 110646Z 17008KT 21/16 A3017 RMK A01 T02120159  RH  072%=      5-min Rain = 0
KAM1 110647Z 17007KT 21/16 A3017 RMK A01 T02110158  RH  072%=      5-min Rain = 0
KAM1 110648Z 17007KT 21/16 A3017 RMK A01 T02120159  RH  072%=      5-min Rain = 0
KAM1 110649Z 17007KT 21/16 A3017 RMK A01 T02130159  RH  071%=      5-min Rain = 0
KAM1 110650Z 17007KT 21/16 A3017 RMK A01 T02130159  RH  071%=      5-min Rain = 0
KAM1 110651Z 17007KT 21/16 A3017 RMK A01 T02130159  RH  071%=      5-min Rain = 0
KAM1 110652Z 17007KT 21/16 A3017 RMK A01 T02130159  RH  071%=      5-min Rain = 0
KAM1 110653Z 17007KT 21/16 A3017 RMK A01 T02130159  RH  072%=      5-min Rain = 0
KAM1 110654Z 17007KT 21/16 A3017 RMK A01 T02120159  RH  072%=      5-min Rain = 0
KAM1 110655Z 17007KT 21/16 A3017 RMK A01 T02110160  RH  072%=      5-min Rain = 0
KAM1 110656Z 17006KT 21/16 A3017 RMK A01 T02110160  RH  072%=      5-min Rain = 0
KAM1 110657Z 17006KT 21/16 A3017 RMK A01 T02110160  RH  073%=      5-min Rain = 0
KAM1 110658Z 17007KT 21/16 A3017 RMK A01 T02110160  RH  073%=      5-min Rain = 0
KAM1 110659Z 17007KT 21/16 A3017 RMK A01 T02110160  RH  073%=      5-min Rain = 0
KAM1 110700Z 17007KT 21/16 A3017 RMK A01 T02110160  RH  073%=      5-min Rain = 0
KAM1 110701Z 16007KT 21/16 A3017 RMK A01 T02110160  RH  073%=      5-min Rain = 0
KAM1 110702Z 16007KT 21/16 A3017 RMK A01 T02110161  RH  073%=      5-min Rain = 0
KAM1 110703Z 17007KT 21/16 A3017 RMK A01 T02110161  RH  073%=      5-min Rain = 0
KAM1 110704Z 16007KT 21/16 A3017 RMK A01 T02100161  RH  073%=      5-min Rain = 0
KAM1 110705Z 16007KT 21/16 A3017 RMK A01 T02100161  RH  073%=      5-min Rain = 0
KAM1 110706Z 16007KT 21/16 A3017 RMK A01 T02100161  RH  073%=      5-min Rain = 0
KAM1 110707Z 16007KT 21/16 A3017 RMK A01 T02100161  RH  073%=      5-min Rain = 0
KAM1 110708Z 17006KT 21/16 A3017 RMK A01 T02100161  RH  073%=      5-min Rain = 0
KAM1 110709Z 17006KT 21/16 A3017 RMK A01 T02100161  RH  073%=      5-min Rain = 0
KAM1 110710Z 17006KT 21/16 A3017 RMK A01 T02100160  RH  073%=      5-min Rain = 0
KAM1 110711Z 17007KT 21/16 A3017 RMK A01 T02110161  RH  073%=      5-min Rain = 0
KAM1 110712Z 17007KT 21/16 A3017 RMK A01 T02100161  RH  073%=      5-min Rain = 0
KAM1 110713Z 16007KT 21/16 A3017 RMK A01 T02100160  RH  073%=      5-min Rain = 0
KAM1 110714Z 16007KT 21/16 A3017 RMK A01 T02100161  RH  073%=      5-min Rain = 0
KAM1 110715Z 16007KT 21/16 A3017 RMK A01 T02100160  RH  073%=      5-min Rain = 0
KAM1 110716Z 17007KT 21/16 A3017 RMK A01 T02100160  RH  073%=      5-min Rain = 0
KAM1 110717Z 17006KT 21/16 A3017 RMK A01 T02100160  RH  073%=      5-min Rain = 0
KAM1 110718Z 17007KT 21/16 A3017 RMK A01 T02090160  RH  074%=      5-min Rain = 0
KAM1 110719Z 17006KT 21/16 A3017 RMK A01 T02090160  RH  074%=      5-min Rain = 0
KAM1 110720Z 18007KT 21/16 A3017 RMK A01 T02090160  RH  074%=      5-min Rain = 0
KAM1 110721Z 18007KT 21/16 A3017 RMK A01 T02080160  RH  074%=      5-min Rain = 0
KAM1 110722Z 17007KT 21/16 A3017 RMK A01 T02080160  RH  074%=      5-min Rain = 0
KAM1 110723Z 18007KT 21/16 A3017 RMK A01 T02080160  RH  074%=      5-min Rain = 0
KAM1 110724Z 18006KT 21/16 A3017 RMK A01 T02080160  RH  074%=      5-min Rain = 0
KAM1 110725Z 18007KT 21/16 A3017 RMK A01 T02080160  RH  074%=      5-min Rain = 0
KAM1 110726Z 18007KT 21/16 A3017 RMK A01 T02080160  RH  074%=      5-min Rain = 0
KAM1 110727Z 18007KT 21/16 A3017 RMK A01 T02090160  RH  074%=      5-min Rain = 0
KAM1 110728Z 18007KT 21/16 A3017 RMK A01 T02090160  RH  074%=      5-min Rain = 0
KAM1 110729Z 18006KT 21/16 A3017 RMK A01 T02090160  RH  074%=      5-min Rain = 0
KAM1 110730Z 19006KT 21/16 A3017 RMK A01 T02090161  RH  074%=      5-min Rain = 0
KAM1 110731Z 19006KT 21/16 A3017 RMK A01 T02100161  RH  074%=      5-min Rain = 0
KAM1 110732Z 19006KT 21/16 A3017 RMK A01 T02090161  RH  074%=      5-min Rain = 0
KAM1 110733Z 19006KT 21/16 A3017 RMK A01 T02080161  RH  074%=      5-min Rain = 0
KAM1 110734Z 19006KT 21/16 A3017 RMK A01 T02080161  RH  074%=      5-min Rain = 0
KAM1 110735Z 19006KT 21/16 A3017 RMK A01 T02080161  RH  074%=      5-min Rain = 0
KAM1 110736Z 18006KT 21/16 A3017 RMK A01 T02070161  RH  075%=      5-min Rain = 0
KAM1 110737Z 19006KT 21/16 A3017 RMK A01 T02070161  RH  075%=      5-min Rain = 0
KAM1 110738Z 19006KT 21/16 A3017 RMK A01 T02060160  RH  075%=      5-min Rain = 0
KAM1 110739Z 19006KT 21/16 A3017 RMK A01 T02060161  RH  075%=      5-min Rain = 0
KAM1 110740Z 19005KT 21/16 A3017 RMK A01 T02060161  RH  075%=      5-min Rain = 0
KAM1 110741Z 19005KT 21/16 A3017 RMK A01 T02060161  RH  075%=      5-min Rain = 0
KAM1 110742Z 19005KT 21/16 A3017 RMK A01 T02050161  RH  076%=      5-min Rain = 0
KAM1 110743Z 19005KT 21/16 A3017 RMK A01 T02050161  RH  076%=      5-min Rain = 0
KAM1 110744Z 19005KT 21/16 A3017 RMK A01 T02050161  RH  076%=      5-min Rain = 0
KAM1 110745Z 19005KT 20/16 A3017 RMK A01 T02040160  RH  076%=      5-min Rain = 0
KAM1 110746Z 19005KT 20/16 A3017 RMK A01 T02040160  RH  076%=      5-min Rain = 0
KAM1 110747Z 19005KT 20/16 A3017 RMK A01 T02040160  RH  076%=      5-min Rain = 0
KAM1 110748Z 19006KT 20/16 A3017 RMK A01 T02030160  RH  076%=      5-min Rain = 0
KAM1 110749Z 19006KT 20/16 A3017 RMK A01 T02030160  RH  076%=      5-min Rain = 0
KAM1 110750Z 19006KT 20/16 A3017 RMK A01 T02030160  RH  076%=      5-min Rain = 0
KAM1 110751Z 19006KT 20/16 A3017 RMK A01 T02020160  RH  077%=      5-min Rain = 0
KAM1 110752Z 20006KT 20/16 A3017 RMK A01 T02020160  RH  077%=      5-min Rain = 0
KAM1 110753Z 19006KT 20/16 A3017 RMK A01 T02010160  RH  077%=      5-min Rain = 0
KAM1 110754Z 20005KT 20/16 A3017 RMK A01 T02010160  RH  077%=      5-min Rain = 0
KAM1 110755Z 20006KT 20/16 A3017 RMK A01 T02010160  RH  077%=      5-min Rain = 0
KAM1 110756Z 19006KT 20/16 A3017 RMK A01 T02010160  RH  077%=      5-min Rain = 0
KAM1 110757Z 19006KT 20/16 A3017 RMK A01 T02010160  RH  077%=      5-min Rain = 0
KAM1 110758Z 19005KT 20/16 A3017 RMK A01 T02010160  RH  077%=      5-min Rain = 0
KAM1 110759Z 19006KT 20/16 A3017 RMK A01 T02020160  RH  077%=      5-min Rain = 0
KAM1 110800Z 19006KT 20/16 A3017 RMK A01 T02020160  RH  077%=      5-min Rain = 0
KAM1 110801Z 20006KT 20/16 A3017 RMK A01 T02030161  RH  077%=      5-min Rain = 0
KAM1 110802Z 20006KT 20/16 A3017 RMK A01 T02030161  RH  077%=      5-min Rain = 0
KAM1 110803Z 20006KT 20/16 A3017 RMK A01 T02030161  RH  076%=      5-min Rain = 0
KAM1 110804Z 20005KT 20/16 A3016 RMK A01 T02030161  RH  077%=      5-min Rain = 0
KAM1 110805Z 20005KT 20/16 A3016 RMK A01 T02030161  RH  077%=      5-min Rain = 0
KAM1 110806Z 20006KT 20/16 A3016 RMK A01 T02040161  RH  076%=      5-min Rain = 0
KAM1 110807Z 20006KT 20/16 A3017 RMK A01 T02040161  RH  076%=      5-min Rain = 0
KAM1 110808Z 20005KT 20/16 A3017 RMK A01 T02040161  RH  076%=      5-min Rain = 0
KAM1 110809Z 20006KT 20/16 A3017 RMK A01 T02040161  RH  076%=      5-min Rain = 0
KAM1 110810Z 20006KT 20/16 A3016 RMK A01 T02040161  RH  076%=      5-min Rain = 0
KAM1 110811Z 20006KT 21/16 A3016 RMK A01 T02050161  RH  076%=      5-min Rain = 0
KAM1 110812Z 20005KT 21/16 A3016 RMK A01 T02050161  RH  076%=      5-min Rain = 0
KAM1 110813Z 20005KT 20/16 A3016 RMK A01 T02040161  RH  076%=      5-min Rain = 0
KAM1 110814Z 20005KT 20/16 A3016 RMK A01 T02040161  RH  076%=      5-min Rain = 0
KAM1 110815Z 20006KT 20/16 A3016 RMK A01 T02040161  RH  076%=      5-min Rain = 0
KAM1 110816Z 21005KT 20/16 A3016 RMK A01 T02040161  RH  076%=      5-min Rain = 0
KAM1 110817Z 20006KT 20/16 A3016 RMK A01 T02040161  RH  076%=      5-min Rain = 0
KAM1 110818Z 21005KT 20/16 A3016 RMK A01 T02040161  RH  077%=      5-min Rain = 0
KAM1 110819Z 20005KT 20/16 A3016 RMK A01 T02040162  RH  077%=      5-min Rain = 0
KAM1 110820Z 20005KT 20/16 A3016 RMK A01 T02040162  RH  077%=      5-min Rain = 0
KAM1 110821Z 20005KT 20/16 A3016 RMK A01 T02040162  RH  077%=      5-min Rain = 0
KAM1 110822Z 20005KT 20/16 A3016 RMK A01 T02030161  RH  077%=      5-min Rain = 0
KAM1 110823Z 20005KT 20/16 A3016 RMK A01 T02030162  RH  077%=      5-min Rain = 0
KAM1 110824Z 19005KT 20/16 A3016 RMK A01 T02030162  RH  077%=      5-min Rain = 0
KAM1 110825Z 19004KT 20/16 A3017 RMK A01 T02030161  RH  077%=      5-min Rain = 0
KAM1 110826Z 19004KT 20/16 A3017 RMK A01 T02030161  RH  077%=      5-min Rain = 0
KAM1 110827Z 19004KT 20/16 A3017 RMK A01 T02020161  RH  077%=      5-min Rain = 0
KAM1 110828Z 19004KT 20/16 A3017 RMK A01 T02020161  RH  077%=      5-min Rain = 0
KAM1 110829Z 19004KT 20/16 A3017 RMK A01 T02010161  RH  077%=      5-min Rain = 0
KAM1 110830Z 18004KT 20/16 A3017 RMK A01 T02010161  RH  078%=      5-min Rain = 0
KAM1 110831Z 18004KT 20/16 A3017 RMK A01 T02010161  RH  078%=      5-min Rain = 0
KAM1 110832Z 18004KT 20/16 A3017 RMK A01 T02010161  RH  078%=      5-min Rain = 0
KAM1 110833Z 17004KT 20/16 A3017 RMK A01 T02010161  RH  078%=      5-min Rain = 0
KAM1 110834Z 17004KT 20/16 A3017 RMK A01 T02000160  RH  078%=      5-min Rain = 0
KAM1 110835Z 18004KT 20/16 A3017 RMK A01 T02000161  RH  078%=      5-min Rain = 0
KAM1 110836Z 17004KT 20/16 A3017 RMK A01 T02000160  RH  078%=      5-min Rain = 0
KAM1 110837Z 17004KT 20/16 A3016 RMK A01 T02000160  RH  078%=      5-min Rain = 0
KAM1 110838Z 18005KT 20/16 A3016 RMK A01 T01990160  RH  078%=      5-min Rain = 0
KAM1 110839Z 18005KT 20/16 A3016 RMK A01 T01990160  RH  078%=      5-min Rain = 0
KAM1 110840Z 18005KT 20/16 A3016 RMK A01 T01990160  RH  078%=      5-min Rain = 0
KAM1 110841Z 18005KT 20/16 A3016 RMK A01 T01980159  RH  078%=      5-min Rain = 0
KAM1 110842Z 18005KT 20/16 A3016 RMK A01 T01980159  RH  078%=      5-min Rain = 0
KAM1 110843Z 17005KT 20/16 A3016 RMK A01 T01970159  RH  079%=      5-min Rain = 0
KAM1 110844Z 18005KT 20/16 A3016 RMK A01 T01970159  RH  079%=      5-min Rain = 0
KAM1 110845Z 18005KT 20/16 A3016 RMK A01 T01960159  RH  079%=      5-min Rain = 0
KAM1 110846Z 18005KT 20/16 A3016 RMK A01 T01960159  RH  079%=      5-min Rain = 0
KAM1 110847Z 17005KT 20/16 A3016 RMK A01 T01950160  RH  080%=      5-min Rain = 0
KAM1 110848Z 18005KT 20/16 A3016 RMK A01 T01950160  RH  080%=      5-min Rain = 0
KAM1 110849Z 18005KT 20/16 A3016 RMK A01 T01950160  RH  080%=      5-min Rain = 0
KAM1 110850Z 18005KT 20/16 A3016 RMK A01 T01950160  RH  080%=      5-min Rain = 0
KAM1 110851Z 18005KT 20/16 A3016 RMK A01 T01950160  RH  080%=      5-min Rain = 0
KAM1 110852Z 19005KT 20/16 A3016 RMK A01 T01950160  RH  080%=      5-min Rain = 0
KAM1 110853Z 19004KT 20/16 A3016 RMK A01 T01950160  RH  080%=      5-min Rain = 0
KAM1 110854Z 18004KT 20/16 A3016 RMK A01 T01950160  RH  080%=      5-min Rain = 0
KAM1 110855Z 19004KT 20/16 A3016 RMK A01 T01950160  RH  080%=      5-min Rain = 0
KAM1 110856Z 19004KT 20/16 A3016 RMK A01 T01950160  RH  080%=      5-min Rain = 0
KAM1 110857Z 19004KT 20/16 A3016 RMK A01 T01950160  RH  080%=      5-min Rain = 0
KAM1 110858Z 19004KT 20/16 A3016 RMK A01 T01950160  RH  080%=      5-min Rain = 0
KAM1 110859Z 19004KT 20/16 A3016 RMK A01 T01950160  RH  080%=      5-min Rain = 0
KAM1 110900Z 19004KT 20/16 A3016 RMK A01 T01950160  RH  080%=      5-min Rain = 0
KAM1 110901Z 18004KT 20/16 A3016 RMK A01 T01960161  RH  080%=      5-min Rain = 0
KAM1 110902Z 18004KT 20/16 A3016 RMK A01 T01970160  RH  080%=      5-min Rain = 0
KAM1 110903Z 18004KT 20/16 A3016 RMK A01 T01970160  RH  079%=      5-min Rain = 0
KAM1 110904Z 18004KT 20/16 A3016 RMK A01 T01970160  RH  079%=      5-min Rain = 0
KAM1 110905Z 18004KT 20/16 A3016 RMK A01 T01970160  RH  079%=      5-min Rain = 0
KAM1 110906Z 18004KT 20/16 A3016 RMK A01 T01960159  RH  079%=      5-min Rain = 0
KAM1 110907Z 18004KT 20/16 A3016 RMK A01 T01960160  RH  080%=      5-min Rain = 0
KAM1 110908Z 18004KT 20/16 A3016 RMK A01 T01950160  RH  080%=      5-min Rain = 0
KAM1 110909Z 18005KT 20/16 A3016 RMK A01 T01950159  RH  080%=      5-min Rain = 0
KAM1 110910Z 18005KT 19/16 A3016 RMK A01 T01940159  RH  080%=      5-min Rain = 0
KAM1 110911Z 17005KT 19/16 A3016 RMK A01 T01940160  RH  081%=      5-min Rain = 0
KAM1 110912Z 17004KT 19/16 A3016 RMK A01 T01940160  RH  080%=      5-min Rain = 0
KAM1 110913Z 16004KT 19/16 A3016 RMK A01 T01940160  RH  080%=      5-min Rain = 0
KAM1 110914Z 15004KT 19/16 A3016 RMK A01 T01940160  RH  081%=      5-min Rain = 0
KAM1 110915Z 15004KT 19/16 A3016 RMK A01 T01940161  RH  081%=      5-min Rain = 0
KAM1 110916Z 15004KT 19/16 A3016 RMK A01 T01940161  RH  081%=      5-min Rain = 0
KAM1 110917Z 15005KT 20/16 A3016 RMK A01 T01950160  RH  080%=      5-min Rain = 0
KAM1 110918Z 15005KT 20/16 A3016 RMK A01 T01950160  RH  080%=      5-min Rain = 0
KAM1 110919Z 16006KT 20/16 A3016 RMK A01 T01950159  RH  080%=      5-min Rain = 0
KAM1 110920Z 16006KT 20/16 A3016 RMK A01 T01950159  RH  080%=      5-min Rain = 0
KAM1 110921Z 16006KT 19/16 A3016 RMK A01 T01940158  RH  080%=      5-min Rain = 0
KAM1 110922Z 17006KT 19/16 A3016 RMK A01 T01930158  RH  080%=      5-min Rain = 0
KAM1 110923Z 17006KT 19/16 A3016 RMK A01 T01920158  RH  081%=      5-min Rain = 0
KAM1 110924Z 17007KT 19/16 A3016 RMK A01 T01910158  RH  081%=      5-min Rain = 0
KAM1 110925Z 17007KT 19/16 A3016 RMK A01 T01910159  RH  081%=      5-min Rain = 0
KAM1 110926Z 17007KT 19/16 A3016 RMK A01 T01910159  RH  082%=      5-min Rain = 0
KAM1 110927Z 17007KT 19/16 A3016 RMK A01 T01910159  RH  082%=      5-min Rain = 0
KAM1 110928Z 17007KT 19/16 A3016 RMK A01 T01910160  RH  082%=      5-min Rain = 0
KAM1 110929Z 17007KT 19/16 A3016 RMK A01 T01910160  RH  082%=      5-min Rain = 0
KAM1 110930Z 17007KT 19/16 A3016 RMK A01 T01920161  RH  082%=      5-min Rain = 0
KAM1 110931Z 17007KT 19/16 A3016 RMK A01 T01920161  RH  082%=      5-min Rain = 0
KAM1 110932Z 17007KT 19/16 A3016 RMK A01 T01930161  RH  082%=      5-min Rain = 0
KAM1 110933Z 17007KT 19/16 A3016 RMK A01 T01940161  RH  081%=      5-min Rain = 0
KAM1 110934Z 18007KT 19/16 A3016 RMK A01 T01940161  RH  081%=      5-min Rain = 0
KAM1 110935Z 17007KT 19/16 A3016 RMK A01 T01940161  RH  081%=      5-min Rain = 0
KAM1 110936Z 18007KT 19/16 A3016 RMK A01 T01940162  RH  082%=      5-min Rain = 0
KAM1 110937Z 18007KT 19/16 A3016 RMK A01 T01930161  RH  082%=      5-min Rain = 0
KAM1 110938Z 18006KT 19/16 A3016 RMK A01 T01940161  RH  081%=      5-min Rain = 0
KAM1 110939Z 18006KT 20/16 A3016 RMK A01 T01950161  RH  081%=      5-min Rain = 0
KAM1 110940Z 18007KT 20/16 A3016 RMK A01 T01950161  RH  080%=      5-min Rain = 0
KAM1 110941Z 18007KT 20/16 A3016 RMK A01 T01960161  RH  080%=      5-min Rain = 0
KAM1 110942Z 18007KT 20/16 A3016 RMK A01 T01960161  RH  080%=      5-min Rain = 0
KAM1 110943Z 18007KT 20/16 A3016 RMK A01 T01950161  RH  080%=      5-min Rain = 0
KAM1 110944Z 18006KT 20/16 A3016 RMK A01 T01950161  RH  081%=      5-min Rain = 0
KAM1 110945Z 18006KT 20/16 A3016 RMK A01 T01950161  RH  081%=      5-min Rain = 0
KAM1 110946Z 18006KT 20/16 A3016 RMK A01 T01950161  RH  081%=      5-min Rain = 0
KAM1 110947Z 18006KT 20/16 A3016 RMK A01 T01950161  RH  081%=      5-min Rain = 0
KAM1 110948Z 18007KT 19/16 A3016 RMK A01 T01940161  RH  081%=      5-min Rain = 0
KAM1 110949Z 18006KT 19/16 A3016 RMK A01 T01940161  RH  081%=      5-min Rain = 0
KAM1 110950Z 17006KT 19/16 A3016 RMK A01 T01940161  RH  081%=      5-min Rain = 0
KAM1 110951Z 17005KT 19/16 A3016 RMK A01 T01940161  RH  081%=      5-min Rain = 0
KAM1 110952Z 17006KT 19/16 A3016 RMK A01 T01940161  RH  081%=      5-min Rain = 0
KAM1 110953Z 16006KT 19/16 A3016 RMK A01 T01930161  RH  082%=      5-min Rain = 0
KAM1 110954Z 17006KT 19/16 A3016 RMK A01 T01930161  RH  082%=      5-min Rain = 0
KAM1 110955Z 17006KT 19/16 A3016 RMK A01 T01930161  RH  082%=      5-min Rain = 0
KAM1 110956Z 16005KT 19/16 A3016 RMK A01 T01920161  RH  082%=      5-min Rain = 0
KAM1 110957Z 16005KT 19/16 A3016 RMK A01 T01910161  RH  083%=      5-min Rain = 0
KAM1 110958Z 16005KT 19/16 A3016 RMK A01 T01910161  RH  083%=      5-min Rain = 0
KAM1 110959Z 16005KT 19/16 A3015 RMK A01 T01900161  RH  083%=      5-min Rain = 0
KAM1 111000Z 16005KT 19/16 A3015 RMK A01 T01900161  RH  084%=      5-min Rain = 0
KAM1 111001Z 16005KT 19/16 A3015 RMK A01 T01900161  RH  084%=      5-min Rain = 0
KAM1 111002Z 16005KT 19/16 A3015 RMK A01 T01900162  RH  084%=      5-min Rain = 0
KAM1 111003Z 16005KT 19/16 A3015 RMK A01 T01900161  RH  083%=      5-min Rain = 0
KAM1 111004Z 16005KT 19/16 A3015 RMK A01 T01900161  RH  083%=      5-min Rain = 0
KAM1 111005Z 16005KT 19/16 A3015 RMK A01 T01900161  RH  083%=      5-min Rain = 0
KAM1 111006Z 16004KT 19/16 A3015 RMK A01 T01900160  RH  083%=      5-min Rain = 0
KAM1 111007Z 16005KT 19/16 A3015 RMK A01 T01890160  RH  083%=      5-min Rain = 0
KAM1 111008Z 16005KT 19/16 A3015 RMK A01 T01890160  RH  083%=      5-min Rain = 0
KAM1 111009Z 16005KT 19/16 A3015 RMK A01 T01890160  RH  083%=      5-min Rain = 0
KAM1 111010Z 17005KT 19/16 A3015 RMK A01 T01880160  RH  083%=      5-min Rain = 0
KAM1 111011Z 16005KT 19/16 A3015 RMK A01 T01880160  RH  084%=      5-min Rain = 0
KAM1 111012Z 17005KT 19/16 A3015 RMK A01 T01870160  RH  084%=      5-min Rain = 0
KAM1 111013Z 17005KT 19/16 A3015 RMK A01 T01870160  RH  084%=      5-min Rain = 0
KAM1 111014Z 17004KT 19/16 A3015 RMK A01 T01870160  RH  084%=      5-min Rain = 0
KAM1 111015Z 17004KT 19/16 A3015 RMK A01 T01870160  RH  085%=      5-min Rain = 0
KAM1 111016Z 17004KT 19/16 A3015 RMK A01 T01870160  RH  084%=      5-min Rain = 0
KAM1 111017Z 16003KT 19/16 A3015 RMK A01 T01870159  RH  084%=      5-min Rain = 0
KAM1 111018Z 16003KT 19/16 A3015 RMK A01 T01860159  RH  084%=      5-min Rain = 0
KAM1 111019Z 16002KT 19/16 A3015 RMK A01 T01850158  RH  084%=      5-min Rain = 0
KAM1 111020Z 16002KT 18/16 A3015 RMK A01 T01840158  RH  084%=      5-min Rain = 0
KAM1 111021Z 16002KT 18/16 A3015 RMK A01 T01830158  RH  085%=      5-min Rain = 0
KAM1 111022Z 15002KT 18/16 A3015 RMK A01 T01820157  RH  085%=      5-min Rain = 0
KAM1 111023Z 15001KT 18/16 A3015 RMK A01 T01810157  RH  086%=      5-min Rain = 0
KAM1 111024Z 14001KT 18/16 A3015 RMK A01 T01800157  RH  086%=      5-min Rain = 0
KAM1 111025Z 15001KT 18/16 A3015 RMK A01 T01800157  RH  086%=      5-min Rain = 0
KAM1 111026Z 17001KT 18/16 A3015 RMK A01 T01800158  RH  087%=      5-min Rain = 0
KAM1 111027Z 18000KT 18/16 A3015 RMK A01 T01800157  RH  087%=      5-min Rain = 0
KAM1 111028Z 18000KT 18/16 A3015 RMK A01 T01800157  RH  087%=      5-min Rain = 0
KAM1 111029Z 18000KT 18/16 A3015 RMK A01 T01800157  RH  087%=      5-min Rain = 0
KAM1 111030Z 19001KT 18/16 A3015 RMK A01 T01810158  RH  086%=      5-min Rain = 0
KAM1 111031Z 21001KT 18/16 A3015 RMK A01 T01810157  RH  086%=      5-min Rain = 0
KAM1 111032Z 20002KT 18/16 A3015 RMK A01 T01810155  RH  085%=      5-min Rain = 0
KAM1 111033Z 19002KT 18/16 A3015 RMK A01 T01800155  RH  085%=      5-min Rain = 0
KAM1 111034Z 20002KT 18/16 A3015 RMK A01 T01790156  RH  086%=      5-min Rain = 0
KAM1 111035Z 20002KT 18/16 A3015 RMK A01 T01790157  RH  087%=      5-min Rain = 0
KAM1 111036Z 20003KT 18/16 A3015 RMK A01 T01790159  RH  088%=      5-min Rain = 0
KAM1 111037Z 20003KT 18/16 A3016 RMK A01 T01800159  RH  088%=      5-min Rain = 0
KAM1 111038Z 20003KT 18/16 A3016 RMK A01 T01800159  RH  088%=      5-min Rain = 0
KAM1 111039Z 20003KT 18/16 A3016 RMK A01 T01820160  RH  087%=      5-min Rain = 0
KAM1 111040Z 20004KT 18/16 A3016 RMK A01 T01830160  RH  086%=      5-min Rain = 0
KAM1 111041Z 20003KT 19/16 A3016 RMK A01 T01850160  RH  086%=      5-min Rain = 0
KAM1 111042Z 20004KT 19/16 A3016 RMK A01 T01860160  RH  085%=      5-min Rain = 0
KAM1 111043Z 20003KT 19/16 A3016 RMK A01 T01860159  RH  084%=      5-min Rain = 0
KAM1 111044Z 20003KT 19/16 A3016 RMK A01 T01870158  RH  083%=      5-min Rain = 0
KAM1 111045Z 21004KT 19/16 A3016 RMK A01 T01870159  RH  084%=      5-min Rain = 0
KAM1 111046Z 21004KT 19/16 A3016 RMK A01 T01870159  RH  084%=      5-min Rain = 0
KAM1 111047Z 21004KT 19/16 A3016 RMK A01 T01870159  RH  084%=      5-min Rain = 0
KAM1 111048Z 22004KT 19/16 A3016 RMK A01 T01870159  RH  084%=      5-min Rain = 0
KAM1 111049Z 22004KT 19/16 A3016 RMK A01 T01860159  RH  084%=      5-min Rain = 0
KAM1 111050Z 22004KT 19/16 A3016 RMK A01 T01860159  RH  084%=      5-min Rain = 0
KAM1 111051Z 22004KT 19/16 A3016 RMK A01 T01860159  RH  084%=      5-min Rain = 0
KAM1 111052Z 22004KT 19/16 A3016 RMK A01 T01850159  RH  085%=      5-min Rain = 0
KAM1 111053Z 22004KT 19/16 A3016 RMK A01 T01850159  RH  085%=      5-min Rain = 0
KAM1 111054Z 22004KT 18/16 A3016 RMK A01 T01840159  RH  085%=      5-min Rain = 0
KAM1 111055Z 21004KT 18/16 A3016 RMK A01 T01830159  RH  086%=      5-min Rain = 0
KAM1 111056Z 21004KT 18/16 A3016 RMK A01 T01840161  RH  086%=      5-min Rain = 0
KAM1 111057Z 21004KT 18/16 A3016 RMK A01 T01840161  RH  086%=      5-min Rain = 0
KAM1 111058Z 21004KT 18/16 A3016 RMK A01 T01840161  RH  086%=      5-min Rain = 0
KAM1 111059Z 21004KT 18/16 A3016 RMK A01 T01840160  RH  086%=      5-min Rain = 0
KAM1 111100Z 21004KT 18/16 A3016 RMK A01 T01830160  RH  086%=      5-min Rain = 0
KAM1 111101Z 21005KT 18/16 A3016 RMK A01 T01830160  RH  086%=      5-min Rain = 0
KAM1 111102Z 21005KT 18/16 A3016 RMK A01 T01830160  RH  087%=      5-min Rain = 0
KAM1 111103Z 21005KT 18/16 A3016 RMK A01 T01820160  RH  087%=      5-min Rain = 0
KAM1 111104Z 21005KT 18/16 A3016 RMK A01 T01820160  RH  087%=      5-min Rain = 0
KAM1 111105Z 21005KT 18/16 A3016 RMK A01 T01820159  RH  087%=      5-min Rain = 0
KAM1 111106Z 21005KT 18/16 A3016 RMK A01 T01820159  RH  087%=      5-min Rain = 0
KAM1 111107Z 20005KT 18/16 A3016 RMK A01 T01810159  RH  087%=      5-min Rain = 0
KAM1 111108Z 20005KT 18/16 A3016 RMK A01 T01810159  RH  087%=      5-min Rain = 0
KAM1 111109Z 20005KT 18/16 A3016 RMK A01 T01810159  RH  087%=      5-min Rain = 0
KAM1 111110Z 20005KT 18/16 A3016 RMK A01 T01810160  RH  087%=      5-min Rain = 0
KAM1 111111Z 20005KT 18/16 A3016 RMK A01 T01810160  RH  088%=      5-min Rain = 0
KAM1 111112Z 20005KT 18/16 A3016 RMK A01 T01800159  RH  087%=      5-min Rain = 0
KAM1 111113Z 20005KT 18/16 A3016 RMK A01 T01800159  RH  087%=      5-min Rain = 0
KAM1 111114Z 20005KT 18/16 A3016 RMK A01 T01790159  RH  088%=      5-min Rain = 0
KAM1 111115Z 20005KT 18/16 A3016 RMK A01 T01780159  RH  088%=      5-min Rain = 0
KAM1 111116Z 20005KT 18/16 A3016 RMK A01 T01780159  RH  089%=      5-min Rain = 0
KAM1 111117Z 20005KT 18/16 A3016 RMK A01 T01770159  RH  089%=      5-min Rain = 0
KAM1 111118Z 20004KT 18/16 A3016 RMK A01 T01770159  RH  089%=      5-min Rain = 0
KAM1 111119Z 20004KT 18/16 A3016 RMK A01 T01770160  RH  090%=      5-min Rain = 0
KAM1 111120Z 20004KT 18/16 A3016 RMK A01 T01770160  RH  090%=      5-min Rain = 0
KAM1 111121Z 21003KT 18/16 A3016 RMK A01 T01760160  RH  090%=      5-min Rain = 0
KAM1 111122Z 21003KT 18/16 A3016 RMK A01 T01760159  RH  090%=      5-min Rain = 0
KAM1 111123Z 21003KT 18/16 A3016 RMK A01 T01760159  RH  090%=      5-min Rain = 0
KAM1 111124Z 20003KT 18/16 A3016 RMK A01 T01750159  RH  090%=      5-min Rain = 0
KAM1 111125Z 20003KT 18/16 A3016 RMK A01 T01750159  RH  090%=      5-min Rain = 0
KAM1 111126Z 20003KT 18/16 A3016 RMK A01 T01750159  RH  090%=      5-min Rain = 0
KAM1 111127Z 20002KT 18/16 A3016 RMK A01 T01750159  RH  091%=      5-min Rain = 0
KAM1 111128Z 19002KT 17/16 A3016 RMK A01 T01740159  RH  091%=      5-min Rain = 0
KAM1 111129Z 19002KT 17/16 A3016 RMK A01 T01730158  RH  091%=      5-min Rain = 0
KAM1 111130Z 19002KT 17/16 A3016 RMK A01 T01730159  RH  091%=      5-min Rain = 0
KAM1 111131Z 19002KT 17/16 A3016 RMK A01 T01730159  RH  091%=      5-min Rain = 0
KAM1 111132Z 18002KT 17/16 A3016 RMK A01 T01730160  RH  092%=      5-min Rain = 0
KAM1 111133Z 18002KT 17/16 A3016 RMK A01 T01730160  RH  092%=      5-min Rain = 0
KAM1 111134Z 18002KT 17/16 A3016 RMK A01 T01730160  RH  092%=      5-min Rain = 0
KAM1 111135Z 18002KT 17/16 A3016 RMK A01 T01730160  RH  092%=      5-min Rain = 0
KAM1 111136Z 18003KT 17/16 A3016 RMK A01 T01730161  RH  092%=      5-min Rain = 0
KAM1 111137Z 18003KT 17/16 A3016 RMK A01 T01730161  RH  092%=      5-min Rain = 0
KAM1 111138Z 19003KT 17/16 A3016 RMK A01 T01730161  RH  093%=      5-min Rain = 0
KAM1 111139Z 20003KT 17/16 A3016 RMK A01 T01730161  RH  093%=      5-min Rain = 0
KAM1 111140Z 20003KT 17/16 A3016 RMK A01 T01730161  RH  093%=      5-min Rain = 0
KAM1 111141Z 20003KT 17/16 A3016 RMK A01 T01730161  RH  093%=      5-min Rain = 0
KAM1 111142Z 20003KT 17/16 A3016 RMK A01 T01730161  RH  093%=      5-min Rain = 0
KAM1 111143Z 20004KT 17/16 A3016 RMK A01 T01730162  RH  093%=      5-min Rain = 0
KAM1 111144Z 20004KT 17/16 A3016 RMK A01 T01730162  RH  093%=      5-min Rain = 0
KAM1 111145Z 21004KT 17/16 A3016 RMK A01 T01730162  RH  093%=      5-min Rain = 0
KAM1 111146Z 21003KT 17/16 A3015 RMK A01 T01730162  RH  093%=      5-min Rain = 0
KAM1 111147Z 21004KT 17/16 A3015 RMK A01 T01730163  RH  093%=      5-min Rain = 0
KAM1 111148Z 21003KT 17/16 A3015 RMK A01 T01740163  RH  093%=      5-min Rain = 0
KAM1 111149Z 21003KT 17/16 A3015 RMK A01 T01740162  RH  093%=      5-min Rain = 0
KAM1 111150Z 21003KT 17/16 A3015 RMK A01 T01740163  RH  093%=      5-min Rain = 0
KAM1 111151Z 21003KT 17/16 A3015 RMK A01 T01740163  RH  093%=      5-min Rain = 0
KAM1 111152Z 21003KT 17/16 A3015 RMK A01 T01730162  RH  093%=      5-min Rain = 0
KAM1 111153Z 21003KT 17/16 A3015 RMK A01 T01730162  RH  093%=      5-min Rain = 0
KAM1 111154Z 21003KT 17/16 A3016 RMK A01 T01730162  RH  093%=      5-min Rain = 0
KAM1 111155Z 21003KT 17/16 A3016 RMK A01 T01730162  RH  093%=      5-min Rain = 0
KAM1 111156Z 21003KT 17/16 A3016 RMK A01 T01720162  RH  093%=      5-min Rain = 0
KAM1 111157Z 21003KT 17/16 A3016 RMK A01 T01720161  RH  094%=      5-min Rain = 0
KAM1 111158Z 21003KT 17/16 A3016 RMK A01 T01720161  RH  094%=      5-min Rain = 0
KAM1 111159Z 21003KT 17/16 A3016 RMK A01 T01710161  RH  094%=      5-min Rain = 0
KAM1 111200Z 21003KT 17/16 A3016 RMK A01 T01710161  RH  094%=      5-min Rain = 0
KAM1 111201Z 21003KT 17/16 A3016 RMK A01 T01710161  RH  094%=      5-min Rain = 0
KAM1 111202Z 21003KT 17/16 A3016 RMK A01 T01710161  RH  094%=      5-min Rain = 0
KAM1 111203Z 22003KT 17/16 A3016 RMK A01 T01710161  RH  094%=      5-min Rain = 0
KAM1 111204Z 22003KT 17/16 A3016 RMK A01 T01720162  RH  094%=      5-min Rain = 0
KAM1 111205Z 22004KT 17/16 A3016 RMK A01 T01720163  RH  094%=      5-min Rain = 0
KAM1 111206Z 23004KT 17/16 A3016 RMK A01 T01730163  RH  094%=      5-min Rain = 0
KAM1 111207Z 23004KT 17/16 A3016 RMK A01 T01740163  RH  093%=      5-min Rain = 0
KAM1 111208Z 23004KT 17/16 A3016 RMK A01 T01740162  RH  093%=      5-min Rain = 0
KAM1 111209Z 23004KT 17/16 A3016 RMK A01 T01740162  RH  092%=      5-min Rain = 0
KAM1 111210Z 22004KT 17/16 A3016 RMK A01 T01740161  RH  092%=      5-min Rain = 0
KAM1 111211Z 22004KT 17/16 A3016 RMK A01 T01740161  RH  092%=      5-min Rain = 0
KAM1 111212Z 22004KT 17/16 A3016 RMK A01 T01740161  RH  092%=      5-min Rain = 0
KAM1 111213Z 22003KT 17/16 A3016 RMK A01 T01740161  RH  092%=      5-min Rain = 0
KAM1 111214Z 22003KT 17/16 A3016 RMK A01 T01740161  RH  092%=      5-min Rain = 0
KAM1 111215Z 22003KT 18/16 A3016 RMK A01 T01750161  RH  092%=      5-min Rain = 0
KAM1 111216Z 22003KT 18/16 A3016 RMK A01 T01750162  RH  092%=      5-min Rain = 0
KAM1 111217Z 21003KT 18/16 A3016 RMK A01 T01760162  RH  092%=      5-min Rain = 0
KAM1 111218Z 21004KT 18/16 A3016 RMK A01 T01760162  RH  091%=      5-min Rain = 0
KAM1 111219Z 21004KT 18/16 A3016 RMK A01 T01770162  RH  091%=      5-min Rain = 0
KAM1 111220Z 22003KT 18/16 A3016 RMK A01 T01770162  RH  091%=      5-min Rain = 0
KAM1 111221Z 22004KT 18/16 A3016 RMK A01 T01780163  RH  091%=      5-min Rain = 0
KAM1 111222Z 22004KT 18/16 A3016 RMK A01 T01780163  RH  091%=      5-min Rain = 0
KAM1 111223Z 22004KT 18/16 A3016 RMK A01 T01790163  RH  091%=      5-min Rain = 0
KAM1 111224Z 22004KT 18/16 A3016 RMK A01 T01790164  RH  091%=      5-min Rain = 0
KAM1 111225Z 22004KT 18/16 A3016 RMK A01 T01800164  RH  091%=      5-min Rain = 0
KAM1 111226Z 22004KT 18/16 A3016 RMK A01 T01800164  RH  091%=      5-min Rain = 0
KAM1 111227Z 23004KT 18/17 A3016 RMK A01 T01800165  RH  091%=      5-min Rain = 0
KAM1 111228Z 23004KT 18/17 A3016 RMK A01 T01800165  RH  091%=      5-min Rain = 0
KAM1 111229Z 23004KT 18/17 A3016 RMK A01 T01810165  RH  091%=      5-min Rain = 0
KAM1 111230Z 23004KT 18/17 A3016 RMK A01 T01820166  RH  090%=      5-min Rain = 0
KAM1 111231Z 23004KT 18/17 A3016 RMK A01 T01830167  RH  090%=      5-min Rain = 0
KAM1 111232Z 23004KT 18/17 A3017 RMK A01 T01830167  RH  090%=      5-min Rain = 0
KAM1 111233Z 23003KT 18/17 A3017 RMK A01 T01840168  RH  090%=      5-min Rain = 0
KAM1 111234Z 23003KT 19/17 A3017 RMK A01 T01850169  RH  090%=      5-min Rain = 0
KAM1 111235Z 23003KT 19/17 A3017 RMK A01 T01860169  RH  090%=      5-min Rain = 0
KAM1 111236Z 23004KT 19/17 A3017 RMK A01 T01870170  RH  090%=      5-min Rain = 0
KAM1 111237Z 23003KT 19/17 A3017 RMK A01 T01870170  RH  090%=      5-min Rain = 0
KAM1 111238Z 23003KT 19/17 A3017 RMK A01 T01880171  RH  090%=      5-min Rain = 0
KAM1 111239Z 24003KT 19/17 A3016 RMK A01 T01890171  RH  089%=      5-min Rain = 0
KAM1 111240Z 24003KT 19/17 A3016 RMK A01 T01900172  RH  090%=      5-min Rain = 0
KAM1 111241Z 24002KT 19/17 A3016 RMK A01 T01910173  RH  090%=      5-min Rain = 0
KAM1 111242Z 23002KT 19/17 A3017 RMK A01 T01910174  RH  090%=      5-min Rain = 0
KAM1 111243Z 23002KT 19/17 A3017 RMK A01 T01920174  RH  089%=      5-min Rain = 0
KAM1 111244Z 24002KT 19/17 A3017 RMK A01 T01930174  RH  089%=      5-min Rain = 0
KAM1 111245Z 23002KT 19/17 A3017 RMK A01 T01930173  RH  088%=      5-min Rain = 0
KAM1 111246Z 23002KT 19/18 A3017 RMK A01 T01940175  RH  088%=      5-min Rain = 0
KAM1 111247Z 23002KT 20/17 A3017 RMK A01 T01950173  RH  087%=      5-min Rain = 0
KAM1 111248Z 24002KT 20/17 A3017 RMK A01 T01950173  RH  087%=      5-min Rain = 0
KAM1 111249Z 24002KT 20/17 A3017 RMK A01 T01960173  RH  087%=      5-min Rain = 0
KAM1 111250Z 25002KT 20/17 A3017 RMK A01 T01960172  RH  086%=      5-min Rain = 0
KAM1 111251Z 25002KT 20/17 A3017 RMK A01 T01970172  RH  086%=      5-min Rain = 0
KAM1 111252Z 24003KT 20/17 A3017 RMK A01 T01970173  RH  086%=      5-min Rain = 0
KAM1 111253Z 24003KT 20/17 A3017 RMK A01 T01980173  RH  086%=      5-min Rain = 0
KAM1 111254Z 24003KT 20/17 A3017 RMK A01 T01980173  RH  085%=      5-min Rain = 0
KAM1 111255Z 23003KT 20/17 A3017 RMK A01 T01990173  RH  085%=      5-min Rain = 0
KAM1 111256Z 22003KT 20/17 A3017 RMK A01 T02000173  RH  084%=      5-min Rain = 0
KAM1 111257Z 23003KT 20/17 A3017 RMK A01 T02010173  RH  084%=      5-min Rain = 0
KAM1 111258Z 22003KT 20/17 A3017 RMK A01 T02020172  RH  083%=      5-min Rain = 0
KAM1 111259Z 20002KT 20/17 A3017 RMK A01 T02020172  RH  083%=      5-min Rain = 0
KAM1 111300Z 21003KT 20/17 A3017 RMK A01 T02020174  RH  084%=      5-min Rain = 0
KAM1 111301Z 20002KT 20/18 A3017 RMK A01 T02030175  RH  084%=      5-min Rain = 0
KAM1 111302Z 19003KT 20/17 A3017 RMK A01 T02040173  RH  082%=      5-min Rain = 0
KAM1 111303Z 20003KT 21/17 A3017 RMK A01 T02050172  RH  082%=      5-min Rain = 0
KAM1 111304Z 19003KT 21/17 A3017 RMK A01 T02050171  RH  081%=      5-min Rain = 0
KAM1 111305Z 20003KT 21/17 A3017 RMK A01 T02050173  RH  082%=      5-min Rain = 0
KAM1 111306Z 19003KT 21/17 A3017 RMK A01 T02060172  RH  081%=      5-min Rain = 0
KAM1 111307Z 20004KT 21/17 A3017 RMK A01 T02070172  RH  081%=      5-min Rain = 0
KAM1 111308Z 21004KT 21/17 A3017 RMK A01 T02070174  RH  081%=      5-min Rain = 0
KAM1 111309Z 20004KT 21/17 A3017 RMK A01 T02080174  RH  081%=      5-min Rain = 0
KAM1 111310Z 21005KT 21/17 A3017 RMK A01 T02090173  RH  080%=      5-min Rain = 0
KAM1 111311Z 20004KT 21/17 A3017 RMK A01 T02090173  RH  080%=      5-min Rain = 0
KAM1 111312Z 21003KT 21/17 A3017 RMK A01 T02100174  RH  080%=      5-min Rain = 0
KAM1 111313Z 21006KT 21/17 A3017 RMK A01 T02100173  RH  079%=      5-min Rain = 0
KAM1 111314Z 20005KT 21/17 A3017 RMK A01 T02110172  RH  079%=      5-min Rain = 0
KAM1 111315Z 21005KT 21/17 A3017 RMK A01 T02110173  RH  079%=      5-min Rain = 0
KAM1 111316Z 21004KT 21/17 A3017 RMK A01 T02120174  RH  079%=      5-min Rain = 0
KAM1 111317Z 20005KT 21/18 A3017 RMK A01 T02130176  RH  080%=      5-min Rain = 0
KAM1 111318Z 20005KT 21/17 A3017 RMK A01 T02140173  RH  078%=      5-min Rain = 0
KAM1 111319Z 20005KT 21/17 A3017 RMK A01 T02140173  RH  078%=      5-min Rain = 0
KAM1 111320Z 21005KT 21/17 A3017 RMK A01 T02140174  RH  078%=      5-min Rain = 0
KAM1 111321Z 20005KT 22/17 A3017 RMK A01 T02150173  RH  077%=      5-min Rain = 0
KAM1 111322Z 21004KT 22/17 A3017 RMK A01 T02160173  RH  077%=      5-min Rain = 0
KAM1 111323Z 21004KT 22/18 A3017 RMK A01 T02170176  RH  077%=      5-min Rain = 0
KAM1 111324Z 20005KT 22/17 A3017 RMK A01 T02170174  RH  076%=      5-min Rain = 0
KAM1 111325Z 21005KT 22/17 A3017 RMK A01 T02180174  RH  076%=      5-min Rain = 0
KAM1 111326Z 20005KT 22/17 A3017 RMK A01 T02190174  RH  076%=      5-min Rain = 0
KAM1 111327Z 21004KT 22/17 A3017 RMK A01 T02190174  RH  076%=      5-min Rain = 0
KAM1 111328Z 20003KT 22/18 A3017 RMK A01 T02190176  RH  076%=      5-min Rain = 0
KAM1 111329Z 20005KT 22/18 A3017 RMK A01 T02210175  RH  075%=      5-min Rain = 0
KAM1 111330Z 21005KT 22/17 A3017 RMK A01 T02220173  RH  074%=      5-min Rain = 0
KAM1 111331Z 21004KT 22/18 A3017 RMK A01 T02220175  RH  075%=      5-min Rain = 0
KAM1 111332Z 21005KT 22/18 A3017 RMK A01 T02230175  RH  074%=      5-min Rain = 0
KAM1 111333Z 20004KT 22/17 A3017 RMK A01 T02230174  RH  074%=      5-min Rain = 0
KAM1 111334Z 20004KT 22/17 A3017 RMK A01 T02240174  RH  073%=      5-min Rain = 0
KAM1 111335Z 18004KT 22/18 A3017 RMK A01 T02240175  RH  074%=      5-min Rain = 0
KAM1 111336Z 21004KT 23/18 A3017 RMK A01 T02250176  RH  074%=      5-min Rain = 0
KAM1 111337Z 20004KT 23/18 A3017 RMK A01 T02260175  RH  073%=      5-min Rain = 0
KAM1 111338Z 21003KT 23/18 A3017 RMK A01 T02260175  RH  073%=      5-min Rain = 0
KAM1 111339Z 21003KT 23/18 A3017 RMK A01 T02270176  RH  073%=      5-min Rain = 0
KAM1 111340Z 20004KT 23/18 A3017 RMK A01 T02280176  RH  072%=      5-min Rain = 0
KAM1 111341Z 21004KT 23/17 A3017 RMK A01 T02280174  RH  072%=      5-min Rain = 0
KAM1 111342Z 21005KT 23/18 A3017 RMK A01 T02290176  RH  072%=      5-min Rain = 0
KAM1 111343Z 20005KT 23/18 A3017 RMK A01 T02300175  RH  071%=      5-min Rain = 0
KAM1 111344Z 21004KT 23/17 A3017 RMK A01 T02310174  RH  070%=      5-min Rain = 0
KAM1 111345Z 20004KT 23/18 A3017 RMK A01 T02310176  RH  071%=      5-min Rain = 0
KAM1 111346Z 20005KT 23/18 A3017 RMK A01 T02310175  RH  070%=      5-min Rain = 0
KAM1 111347Z 20004KT 23/18 A3017 RMK A01 T02320176  RH  071%=      5-min Rain = 0
KAM1 111348Z 20006KT 23/18 A3017 RMK A01 T02330175  RH  070%=      5-min Rain = 0
KAM1 111349Z 20006KT 23/17 A3017 RMK A01 T02330174  RH  069%=      5-min Rain = 0
KAM1 111350Z 21005KT 23/17 A3017 RMK A01 T02330172  RH  068%=      5-min Rain = 0
KAM1 111351Z 19005KT 23/17 A3017 RMK A01 T02340174  RH  069%=      5-min Rain = 0
KAM1 111352Z 20006KT 24/17 A3017 RMK A01 T02350173  RH  068%=      5-min Rain = 0
KAM1 111353Z 20006KT 24/17 A3017 RMK A01 T02360174  RH  068%=      5-min Rain = 0
KAM1 111354Z 21005KT 24/17 A3017 RMK A01 T02370174  RH  068%=      5-min Rain = 0
KAM1 111355Z 19006KT 24/17 A3017 RMK A01 T02380174  RH  067%=      5-min Rain = 0
KAM1 111356Z 20006KT 24/17 A3017 RMK A01 T02380174  RH  067%=      5-min Rain = 0
KAM1 111357Z 20008KT 24/17 A3017 RMK A01 T02390173  RH  066%=      5-min Rain = 0
KAM1 111358Z 21007KT 24/17 A3017 RMK A01 T02410173  RH  066%=      5-min Rain = 0
KAM1 111359Z 20005KT 24/17 A3017 RMK A01 T02420173  RH  065%=      5-min Rain = 0
KAM1 111400Z 20006KT 24/17 A3017 RMK A01 T02420173  RH  065%=      5-min Rain = 0
KAM1 111401Z 19007KT 24/17 A3017 RMK A01 T02430173  RH  065%=      5-min Rain = 0
KAM1 111402Z 19007KT 24/17 A3017 RMK A01 T02440173  RH  065%=      5-min Rain = 0
KAM1 111403Z 20009KT 25/17 A3017 RMK A01 T02450172  RH  064%=      5-min Rain = 0
KAM1 111404Z 21008KT 24/17 A3017 RMK A01 T02440170  RH  063%=      5-min Rain = 0
KAM1 111405Z 21007KT 24/17 A3017 RMK A01 T02430172  RH  064%=      5-min Rain = 0
KAM1 111406Z 21007KT 25/17 A3017 RMK A01 T02450173  RH  064%=      5-min Rain = 0
KAM1 111407Z 21006KT 25/17 A3017 RMK A01 T02470172  RH  063%=      5-min Rain = 0
KAM1 111408Z 21008KT 25/17 A3017 RMK A01 T02470172  RH  063%=      5-min Rain = 0
KAM1 111409Z 21007KT 25/17 A3017 RMK A01 T02480169  RH  062%=      5-min Rain = 0
KAM1 111410Z 22008KT 25/17 A3017 RMK A01 T02480168  RH  061%=      5-min Rain = 0
KAM1 111411Z 20009KT 25/17 A3017 RMK A01 T02490169  RH  061%=      5-min Rain = 0
KAM1 111412Z 21008KT 25/17 A3018 RMK A01 T02490168  RH  061%=      5-min Rain = 0
KAM1 111413Z 20009KT 25/17 A3018 RMK A01 T02490168  RH  060%=      5-min Rain = 0
KAM1 111414Z 20008KT 25/17 A3018 RMK A01 T02490168  RH  061%=      5-min Rain = 0
KAM1 111415Z 21010KT 25/17 A3018 RMK A01 T02500167  RH  060%=      5-min Rain = 0
KAM1 111416Z 20010KT 25/17 A3018 RMK A01 T02510165  RH  059%=      5-min Rain = 0
KAM1 111417Z 21010KT 25/17 A3018 RMK A01 T02510165  RH  059%=      5-min Rain = 0
KAM1 111418Z 20008KT 25/17 A3018 RMK A01 T02500166  RH  059%=      5-min Rain = 0
KAM1 111419Z 21009KT 25/17 A3018 RMK A01 T02510166  RH  059%=      5-min Rain = 0
KAM1 111420Z 21008KT 25/17 A3018 RMK A01 T02520167  RH  059%=      5-min Rain = 0
KAM1 111421Z 21008KT 25/17 A3018 RMK A01 T02530165  RH  058%=      5-min Rain = 0
KAM1 111422Z 22007KT 25/17 A3018 RMK A01 T02540168  RH  059%=      5-min Rain = 0
KAM1 111423Z 22009KT 25/17 A3018 RMK A01 T02540168  RH  059%=      5-min Rain = 0
KAM1 111424Z 22008KT 26/17 A3018 RMK A01 T02550167  RH  058%=      5-min Rain = 0
KAM1 111425Z 21008KT 26/17 A3018 RMK A01 T02550167  RH  058%=      5-min Rain = 0
KAM1 111426Z 23006KT 26/17 A3018 RMK A01 T02550169  RH  059%=      5-min Rain = 0
KAM1 111427Z 21007KT 26/17 A3018 RMK A01 T02570169  RH  058%=      5-min Rain = 0
KAM1 111428Z 22009KT 26/17 A3018 RMK A01 T02590169  RH  058%=      5-min Rain = 0
KAM1 111429Z 21007KT 26/17 A3018 RMK A01 T02590168  RH  057%=      5-min Rain = 0
KAM1 111430Z 21008KT 26/17 A3018 RMK A01 T02600167  RH  057%=      5-min Rain = 0
KAM1 111431Z 20009KT 26/17 A3018 RMK A01 T02600166  RH  056%=      5-min Rain = 0
KAM1 111432Z 20008KT 26/17 A3018 RMK A01 T02590166  RH  056%=      5-min Rain = 0
KAM1 111433Z 21006KT 26/17 A3018 RMK A01 T02600169  RH  057%=      5-min Rain = 0
KAM1 111434Z 20008KT 26/17 A3018 RMK A01 T02610169  RH  057%=      5-min Rain = 0
KAM1 111435Z 20008KT 26/17 A3018 RMK A01 T02620167  RH  056%=      5-min Rain = 0
KAM1 111436Z 20008KT 26/17 A3018 RMK A01 T02610166  RH  056%=      5-min Rain = 0
KAM1 111437Z 20006KT 26/16 A3018 RMK A01 T02610164  RH  055%=      5-min Rain = 0
KAM1 111438Z 21007KT 26/17 A3018 RMK A01 T02620166  RH  055%=      5-min Rain = 0
KAM1 111439Z 22008KT 26/17 A3018 RMK A01 T02640165  RH  055%=      5-min Rain = 0
KAM1 111440Z 22009KT 27/16 A3018 RMK A01 T02660163  RH  053%=      5-min Rain = 0
KAM1 111441Z 22008KT 27/16 A3018 RMK A01 T02660162  RH  053%=      5-min Rain = 0
KAM1 111442Z 21009KT 27/16 A3018 RMK A01 T02680158  RH  051%=      5-min Rain = 0
KAM1 111443Z 21010KT 27/16 A3017 RMK A01 T02690160  RH  051%=      5-min Rain = 0
KAM1 111444Z 21010KT 27/16 A3018 RMK A01 T02700156  RH  050%=      5-min Rain = 0
KAM1 111445Z 22012KT 27/16 A3018 RMK A01 T02700156  RH  049%=      5-min Rain = 0
KAM1 111446Z 22012KT 27/15 A3017 RMK A01 T02710151  RH  048%=      5-min Rain = 0
KAM1 111447Z 21014KT 27/15 A3017 RMK A01 T02710150  RH  048%=      5-min Rain = 0
KAM1 111448Z 22015KT 27/15 A3017 RMK A01 T02700150  RH  048%=      5-min Rain = 0
KAM1 111449Z 21013KT 27/15 A3017 RMK A01 T02680151  RH  049%=      5-min Rain = 0
KAM1 111450Z 21012KT 27/15 A3017 RMK A01 T02680153  RH  049%=      5-min Rain = 0
KAM1 111451Z 20013KT 27/15 A3017 RMK A01 T02700151  RH  048%=      5-min Rain = 0
KAM1 111452Z 22011KT 27/16 A3017 RMK A01 T02700155  RH  049%=      5-min Rain = 0
KAM1 111453Z 23013KT 27/15 A3017 RMK A01 T02710153  RH  048%=      5-min Rain = 0
KAM1 111454Z 21011KT 27/15 A3017 RMK A01 T02710154  RH  049%=      5-min Rain = 0
KAM1 111455Z 20010KT 27/15 A3017 RMK A01 T02720154  RH  048%=      5-min Rain = 0
KAM1 111456Z 20012KT 27/15 A3017 RMK A01 T02730153  RH  048%=      5-min Rain = 0
KAM1 111457Z 20010KT 27/15 A3017 RMK A01 T02740154  RH  048%=      5-min Rain = 0
KAM1 111458Z 21009KT 28/16 A3017 RMK A01 T02750156  RH  048%=      5-min Rain = 0
KAM1 111459Z 21011KT 28/16 A3018 RMK A01 T02770155  RH  048%=      5-min Rain = 0
KAM1 111500Z 21009KT 28/16 A3018 RMK A01 T02760156  RH  048%=      5-min Rain = 0
KAM1 111501Z 22009KT 28/16 A3018 RMK A01 T02760156  RH  048%=      5-min Rain = 0
KAM1 111502Z 22010KT 28/16 A3018 RMK A01 T02780155  RH  047%=      5-min Rain = 0
KAM1 111503Z 22011KT 28/15 A3018 RMK A01 T02780154  RH  047%=      5-min Rain = 0
KAM1 111504Z 23009KT 28/16 A3018 RMK A01 T02780155  RH  047%=      5-min Rain = 0
KAM1 111505Z 22010KT 28/16 A3018 RMK A01 T02790157  RH  047%=      5-min Rain = 0
KAM1 111506Z 22011KT 28/15 A3018 RMK A01 T02800154  RH  046%=      5-min Rain = 0
KAM1 111507Z 22013KT 28/15 A3018 RMK A01 T02800152  RH  046%=      5-min Rain = 0
KAM1 111508Z 23011KT 28/15 A3018 RMK A01 T02800150  RH  045%=      5-min Rain = 0
KAM1 111509Z 23012KT 28/15 A3018 RMK A01 T02790151  RH  046%=      5-min Rain = 0
KAM1 111510Z 22012KT 28/15 A3018 RMK A01 T02790149  RH  045%=      5-min Rain = 0
KAM1 111511Z 23011KT 28/15 A3018 RMK A01 T02790152  RH  046%=      5-min Rain = 0
KAM1 111512Z 23011KT 28/15 A3018 RMK A01 T02800151  RH  045%=      5-min Rain = 0
KAM1 111513Z 22011KT 28/15 A3018 RMK A01 T02800151  RH  045%=      5-min Rain = 0
KAM1 111514Z 22010KT 28/15 A3018 RMK A01 T02800153  RH  046%=      5-min Rain = 0
KAM1 111515Z 23011KT 28/15 A3017 RMK A01 T02800152  RH  046%=      5-min Rain = 0
KAM1 111516Z 22010KT 28/15 A3017 RMK A01 T02800151  RH  045%=      5-min Rain = 0
KAM1 111517Z 21009KT 28/15 A3017 RMK A01 T02810154  RH  046%=      5-min Rain = 0
KAM1 111518Z 21012KT 28/15 A3017 RMK A01 T02830149  RH  044%=      5-min Rain = 0
KAM1 111519Z 21011KT 28/15 A3017 RMK A01 T02820148  RH  044%=      5-min Rain = 0
KAM1 111520Z 22011KT 28/15 A3017 RMK A01 T02800150  RH  045%=      5-min Rain = 0
KAM1 111521Z 22013KT 28/15 A3017 RMK A01 T02800150  RH  045%=      5-min Rain = 0
KAM1 111522Z 22010KT 28/15 A3017 RMK A01 T02810151  RH  045%=      5-min Rain = 0
KAM1 111523Z 22012KT 28/15 A3017 RMK A01 T02830150  RH  044%=      5-min Rain = 0
KAM1 111524Z 22011KT 28/15 A3017 RMK A01 T02840152  RH  045%=      5-min Rain = 0
KAM1 111525Z 20010KT 28/15 A3017 RMK A01 T02840152  RH  044%=      5-min Rain = 0
KAM1 111526Z 21010KT 28/15 A3017 RMK A01 T02840152  RH  045%=      5-min Rain = 0
KAM1 111527Z 21008KT 29/15 A3017 RMK A01 T02850154  RH  045%=      5-min Rain = 0
KAM1 111528Z 21011KT 29/15 A3017 RMK A01 T02870154  RH  044%=      5-min Rain = 0
KAM1 111529Z 21010KT 29/15 A3017 RMK A01 T02880153  RH  044%=      5-min Rain = 0
KAM1 111530Z 22009KT 29/15 A3017 RMK A01 T02870152  RH  044%=      5-min Rain = 0
KAM1 111531Z 20010KT 29/15 A3017 RMK A01 T02870154  RH  044%=      5-min Rain = 0
KAM1 111532Z 19010KT 29/15 A3017 RMK A01 T02890151  RH  043%=      5-min Rain = 0
KAM1 111533Z 20014KT 29/15 A3017 RMK A01 T02900152  RH  043%=      5-min Rain = 0
KAM1 111534Z 20012KT 29/15 A3017 RMK A01 T02900152  RH  043%=      5-min Rain = 0
KAM1 111535Z 20015KT 29/15 A3017 RMK A01 T02890146  RH  042%=      5-min Rain = 0
KAM1 111536Z 20014KT 29/14 A3017 RMK A01 T02860144  RH  042%=      5-min Rain = 0
KAM1 111537Z 20013KT 28/14 A3017 RMK A01 T02830144  RH  043%=      5-min Rain = 0
KAM1 111538Z 20014KT 28/15 A3017 RMK A01 T02830147  RH  043%=      5-min Rain = 0
KAM1 111539Z 21013KT 28/15 A3017 RMK A01 T02840147  RH  043%=      5-min Rain = 0
KAM1 111540Z 20013KT 29/15 A3017 RMK A01 T02850146  RH  043%=      5-min Rain = 0
KAM1 111541Z 21011KT 29/15 A3017 RMK A01 T02860150  RH  043%=      5-min Rain = 0
KAM1 111542Z 23011KT 29/15 A3017 RMK A01 T02880150  RH  043%=      5-min Rain = 0
KAM1 111543Z 24013KT 29/15 A3017 RMK A01 T02890150  RH  043%=      5-min Rain = 0
KAM1 111544Z 23014KT 29/15 A3017 RMK A01 T02880150  RH  043%=      5-min Rain = 0
KAM1 111545Z 21013KT 29/15 A3017 RMK A01 T02900150  RH  043%=      5-min Rain = 0
KAM1 111546Z 20011KT 29/15 A3017 RMK A01 T02900148  RH  042%=      5-min Rain = 0
KAM1 111547Z 21008KT 29/15 A3017 RMK A01 T02890152  RH  043%=      5-min Rain = 0
KAM1 111548Z 21009KT 29/15 A3017 RMK A01 T02930150  RH  042%=      5-min Rain = 0
KAM1 111549Z 22012KT 29/15 A3017 RMK A01 T02930149  RH  042%=      5-min Rain = 0
KAM1 111550Z 22013G18KT 29/15 A3017 RMK A01 T02930151  RH  042%=      5-min Rain = 0
KAM1 111551Z 21014KT 29/15 A3017 RMK A01 T02920145  RH  041%=      5-min Rain = 0
KAM1 111552Z 20012KT 29/14 A3017 RMK A01 T02870142  RH  041%=      5-min Rain = 0
KAM1 111553Z 21012KT 29/14 A3017 RMK A01 T02860140  RH  041%=      5-min Rain = 0
KAM1 111554Z 22013KT 29/14 A3017 RMK A01 T02850142  RH  042%=      5-min Rain = 0
KAM1 111555Z 22012KT 29/15 A3017 RMK A01 T02860145  RH  042%=      5-min Rain = 0
KAM1 111556Z 23013KT 29/15 A3017 RMK A01 T02890146  RH  041%=      5-min Rain = 0
KAM1 111557Z 23011G16KT 29/15 A3017 RMK A01 T02900146  RH  042%=      5-min Rain = 0
KAM1 111558Z 21013KT 29/15 A3017 RMK A01 T02910147  RH  041%=      5-min Rain = 0
KAM1 111559Z 20014KT 29/14 A3017 RMK A01 T02910144  RH  041%=      5-min Rain = 0
KAM1 111600Z 19013KT 29/14 A3017 RMK A01 T02890143  RH  041%=      5-min Rain = 0
KAM1 111601Z 19012KT 29/15 A3017 RMK A01 T02880145  RH  042%=      5-min Rain = 0
KAM1 111602Z 20014KT 29/15 A3017 RMK A01 T02890146  RH  042%=      5-min Rain = 0
KAM1 111603Z 20011KT 29/15 A3017 RMK A01 T02900146  RH  041%=      5-min Rain = 0
KAM1 111604Z 19012KT 29/15 A3017 RMK A01 T02910148  RH  042%=      5-min Rain = 0
KAM1 111605Z 20014KT 29/15 A3017 RMK A01 T02920145  RH  041%=      5-min Rain = 0
KAM1 111606Z 20011KT 29/14 A3017 RMK A01 T02910144  RH  041%=      5-min Rain = 0
KAM1 111607Z 20010KT 29/15 A3017 RMK A01 T02900147  RH  042%=      5-min Rain = 0
KAM1 111608Z 19012KT 29/14 A3017 RMK A01 T02920144  RH  041%=      5-min Rain = 0
KAM1 111609Z 20011KT 29/14 A3017 RMK A01 T02920142  RH  040%=      5-min Rain = 0
KAM1 111610Z 21010KT 29/15 A3017 RMK A01 T02920145  RH  041%=      5-min Rain = 0
KAM1 111611Z 22011KT 29/15 A3017 RMK A01 T02940145  RH  040%=      5-min Rain = 0
KAM1 111612Z 22011KT 30/15 A3017 RMK A01 T02950146  RH  040%=      5-min Rain = 0
KAM1 111613Z 20010G15KT 30/15 A3017 RMK A01 T02960145  RH  040%=      5-min Rain = 0
KAM1 111614Z 19011KT 30/14 A3017 RMK A01 T02960142  RH  039%=      5-min Rain = 0
KAM1 111615Z 20011KT 29/14 A3017 RMK A01 T02940141  RH  039%=      5-min Rain = 0
KAM1 111616Z 22013KT 29/14 A3017 RMK A01 T02940142  RH  039%=      5-min Rain = 0
KAM1 111617Z 21012KT 29/14 A3017 RMK A01 T02930136  RH  038%=      5-min Rain = 0
KAM1 111618Z 21012KT 29/14 A3017 RMK A01 T02900137  RH  039%=      5-min Rain = 0
KAM1 111619Z 20014KT 29/14 A3017 RMK A01 T02880137  RH  040%=      5-min Rain = 0
KAM1 111620Z 20012KT 29/14 A3017 RMK A01 T02880141  RH  041%=      5-min Rain = 0
KAM1 111621Z 20013KT 29/14 A3017 RMK A01 T02890139  RH  040%=      5-min Rain = 0
KAM1 111622Z 20011KT 29/14 A3017 RMK A01 T02910140  RH  040%=      5-min Rain = 0
KAM1 111623Z 22014KT 29/14 A3017 RMK A01 T02930141  RH  039%=      5-min Rain = 0
KAM1 111624Z 21013KT 29/14 A3017 RMK A01 T02940142  RH  039%=      5-min Rain = 0
KAM1 111625Z 20010KT 30/14 A3017 RMK A01 T02960140  RH  039%=      5-min Rain = 0
KAM1 111626Z 20011KT 30/14 A3017 RMK A01 T02950143  RH  039%=      5-min Rain = 0
KAM1 111627Z 22010KT 30/14 A3017 RMK A01 T02970141  RH  039%=      5-min Rain = 0
KAM1 111628Z 22011KT 30/14 A3017 RMK A01 T02980144  RH  039%=      5-min Rain = 0
KAM1 111629Z 22012KT 30/14 A3017 RMK A01 T03000143  RH  038%=      5-min Rain = 0
KAM1 111630Z 20010KT 30/14 A3017 RMK A01 T03000144  RH  039%=      5-min Rain = 0
KAM1 111631Z 22008KT 30/14 A3017 RMK A01 T02980142  RH  038%=      5-min Rain = 0
KAM1 111632Z 20008KT 30/14 A3017 RMK A01 T02970144  RH  039%=      5-min Rain = 0
KAM1 111633Z 22009KT 30/14 A3017 RMK A01 T02970142  RH  039%=      5-min Rain = 0
KAM1 111634Z 22012KT 30/14 A3016 RMK A01 T02980144  RH  039%=      5-min Rain = 0
KAM1 111635Z 23012KT 30/14 A3016 RMK A01 T02990144  RH  039%=      5-min Rain = 0
KAM1 111636Z 24013KT 30/14 A3016 RMK A01 T03000142  RH  038%=      5-min Rain = 0
KAM1 111637Z 24008KT 30/14 A3016 RMK A01 T02990141  RH  038%=      5-min Rain = 0
KAM1 111638Z 22006KT 30/14 A3016 RMK A01 T02970141  RH  039%=      5-min Rain = 0
KAM1 111639Z 23009KT 30/15 A3016 RMK A01 T02980145  RH  039%=      5-min Rain = 0
KAM1 111640Z 23011KT 30/14 A3016 RMK A01 T02990141  RH  038%=      5-min Rain = 0
KAM1 111641Z 19013G18KT 30/15 A3016 RMK A01 T02990146  RH  039%=      5-min Rain = 0
KAM1 111642Z 19011KT 30/14 A3016 RMK A01 T03020139  RH  037%=      5-min Rain = 0
KAM1 111643Z 20010KT 30/14 A3016 RMK A01 T03010139  RH  037%=      5-min Rain = 0
KAM1 111644Z 19014KT 30/14 A3016 RMK A01 T03010143  RH  038%=      5-min Rain = 0
KAM1 111645Z 19013KT 30/14 A3016 RMK A01 T03030140  RH  037%=      5-min Rain = 0
KAM1 111646Z 20012KT 30/14 A3016 RMK A01 T03030140  RH  037%=      5-min Rain = 0
KAM1 111647Z 20013G18KT 30/14 A3016 RMK A01 T03010140  RH  037%=      5-min Rain = 0
KAM1 111648Z 21013KT 30/14 A3016 RMK A01 T03010140  RH  038%=      5-min Rain = 0
KAM1 111649Z 21011KT 30/14 A3016 RMK A01 T03000139  RH  037%=      5-min Rain = 0
KAM1 111650Z 20011KT 30/14 A3016 RMK A01 T03000143  RH  038%=      5-min Rain = 0
KAM1 111651Z 21011KT 30/14 A3016 RMK A01 T03020142  RH  038%=      5-min Rain = 0
KAM1 111652Z 21013KT 30/14 A3016 RMK A01 T03020142  RH  038%=      5-min Rain = 0
KAM1 111653Z 21011KT 30/14 A3016 RMK A01 T03030142  RH  037%=      5-min Rain = 0
KAM1 111654Z 17013KT 31/14 A3016 RMK A01 T03050143  RH  037%=      5-min Rain = 0
KAM1 111655Z 17013KT 31/14 A3016 RMK A01 T03080136  RH  035%=      5-min Rain = 0
KAM1 111656Z 18011KT 30/14 A3016 RMK A01 T03040135  RH  036%=      5-min Rain = 0
KAM1 111657Z 17011KT 30/14 A3016 RMK A01 T03020140  RH  037%=      5-min Rain = 0
KAM1 111658Z 17010KT 30/14 A3016 RMK A01 T03020139  RH  037%=      5-min Rain = 0
KAM1 111659Z 18013KT 30/14 A3016 RMK A01 T03030140  RH  037%=      5-min Rain = 0
KAM1 111700Z 19016KT 30/14 A3016 RMK A01 T03040138  RH  036%=      5-min Rain = 0
KAM1 111701Z 19012KT 31/14 A3016 RMK A01 T03050135  RH  035%=      5-min Rain = 0
KAM1 111702Z 18014KT 31/14 A3016 RMK A01 T03050137  RH  036%=      5-min Rain = 0
KAM1 111703Z 18014KT 30/14 A3016 RMK A01 T03040135  RH  036%=      5-min Rain = 0
KAM1 111704Z 18012KT 30/13 A3016 RMK A01 T03030133  RH  035%=      5-min Rain = 0
KAM1 111705Z 18013KT 30/13 A3016 RMK A01 T03020133  RH  036%=      5-min Rain = 0
KAM1 111706Z 17011KT 30/13 A3016 RMK A01 T03000134  RH  036%=      5-min Rain = 0
KAM1 111707Z 20014KT 30/14 A3016 RMK A01 T03020140  RH  037%=      5-min Rain = 0
KAM1 111708Z 21015KT 31/14 A3016 RMK A01 T03060137  RH  036%=      5-min Rain = 0
KAM1 111709Z 18013G18KT 31/13 A3016 RMK A01 T03080134  RH  035%=      5-min Rain = 0
KAM1 111710Z 18010KT 31/13 A3016 RMK A01 T03080133  RH  034%=      5-min Rain = 0
KAM1 111711Z 19011G18KT 31/13 A3016 RMK A01 T03080133  RH  034%=      5-min Rain = 0
KAM1 111712Z 21015KT 31/14 A3016 RMK A01 T03080138  RH  035%=      5-min Rain = 0
KAM1 111713Z 20017KT 31/14 A3016 RMK A01 T03090137  RH  035%=      5-min Rain = 0
KAM1 111714Z 19014KT 31/14 A3016 RMK A01 T03080139  RH  036%=      5-min Rain = 0
KAM1 111715Z 20012KT 31/14 A3016 RMK A01 T03080139  RH  036%=      5-min Rain = 0
KAM1 111716Z 18012KT 31/14 A3016 RMK A01 T03080138  RH  036%=      5-min Rain = 0
KAM1 111717Z 17011KT 31/13 A3016 RMK A01 T03070130  RH  034%=      5-min Rain = 0
KAM1 111718Z 17011KT 30/13 A3016 RMK A01 T03030129  RH  034%=      5-min Rain = 0
KAM1 111719Z 19015G21KT 30/13 A3016 RMK A01 T03010131  RH  035%=      5-min Rain = 0
KAM1 111720Z 20013KT 30/13 A3016 RMK A01 T03010132  RH  035%=      5-min Rain = 0
KAM1 111721Z 19012KT 30/13 A3016 RMK A01 T03020131  RH  035%=      5-min Rain = 0
KAM1 111722Z 20011KT 30/13 A3016 RMK A01 T03000132  RH  036%=      5-min Rain = 0
KAM1 111723Z 20009KT 30/13 A3016 RMK A01 T02990132  RH  036%=      5-min Rain = 0
KAM1 111724Z 20014KT 30/13 A3016 RMK A01 T02990133  RH  036%=      5-min Rain = 0
KAM1 111725Z 21013KT 30/13 A3016 RMK A01 T02980133  RH  036%=      5-min Rain = 0
KAM1 111726Z 20014KT 30/13 A3016 RMK A01 T02960133  RH  037%=      5-min Rain = 0
KAM1 111727Z 20014KT 30/13 A3016 RMK A01 T02970134  RH  037%=      5-min Rain = 0
KAM1 111728Z 19012KT 30/13 A3016 RMK A01 T02970133  RH  037%=      5-min Rain = 0
KAM1 111729Z 19009KT 30/13 A3016 RMK A01 T02950132  RH  037%=      5-min Rain = 0
KAM1 111730Z 19011G16KT 29/13 A3015 RMK A01 T02940134  RH  037%=      5-min Rain = 0
KAM1 111731Z 20015KT 30/14 A3015 RMK A01 T02960137  RH  038%=      5-min Rain = 0
KAM1 111732Z 20014KT 30/14 A3015 RMK A01 T02980136  RH  037%=      5-min Rain = 0
KAM1 111733Z 21011KT 30/14 A3015 RMK A01 T02970135  RH  037%=      5-min Rain = 0
KAM1 111734Z 21009KT 30/14 A3016 RMK A01 T02960135  RH  037%=      5-min Rain = 0
KAM1 111735Z 22009G15KT 30/14 A3015 RMK A01 T02950136  RH  038%=      5-min Rain = 0
KAM1 111736Z 21012KT 30/14 A3015 RMK A01 T02960136  RH  038%=      5-min Rain = 0
KAM1 111737Z 20011KT 30/14 A3015 RMK A01 T02980140  RH  038%=      5-min Rain = 0
KAM1 111738Z 20011KT 30/14 A3015 RMK A01 T03010139  RH  037%=      5-min Rain = 0
KAM1 111739Z 19013KT 30/14 A3015 RMK A01 T03010138  RH  037%=      5-min Rain = 0
KAM1 111740Z 19012KT 30/14 A3015 RMK A01 T03000137  RH  037%=      5-min Rain = 0
KAM1 111741Z 20009KT 30/14 A3015 RMK A01 T02980138  RH  038%=      5-min Rain = 0
KAM1 111742Z 20011G17KT 30/14 A3015 RMK A01 T03000142  RH  038%=      5-min Rain = 0
KAM1 111743Z 20011KT 30/14 A3015 RMK A01 T03020137  RH  036%=      5-min Rain = 0
KAM1 111744Z 18010KT 30/13 A3015 RMK A01 T03030133  RH  035%=      5-min Rain = 0
KAM1 111745Z 17010KT 30/13 A3015 RMK A01 T03030132  RH  035%=      5-min Rain = 0
KAM1 111746Z 17012KT 31/14 A3015 RMK A01 T03050135  RH  036%=      5-min Rain = 0
KAM1 111747Z 18013KT 31/14 A3015 RMK A01 T03050136  RH  036%=      5-min Rain = 0
KAM1 111748Z 20013KT 31/13 A3015 RMK A01 T03060133  RH  035%=      5-min Rain = 0
KAM1 111749Z 21011KT 31/13 A3015 RMK A01 T03060130  RH  034%=      5-min Rain = 0
KAM1 111750Z 19012G20KT 31/13 A3015 RMK A01 T03060134  RH  035%=      5-min Rain = 0
KAM1 111751Z 18015KT 31/13 A3015 RMK A01 T03120134  RH  034%=      5-min Rain = 0
KAM1 111752Z 18015G21KT 32/13 A3015 RMK A01 T03150132  RH  033%=      5-min Rain = 0
KAM1 111753Z 17015KT 32/13 A3015 RMK A01 T03150132  RH  033%=      5-min Rain = 0
KAM1 111754Z 18014KT 31/13 A3015 RMK A01 T03130127  RH  032%=      5-min Rain = 0
KAM1 111755Z 18011KT 31/13 A3015 RMK A01 T03120128  RH  032%=      5-min Rain = 0
KAM1 111756Z 18010KT 31/13 A3015 RMK A01 T03110129  RH  033%=      5-min Rain = 0
KAM1 111757Z 19013G18KT 31/13 A3015 RMK A01 T03100128  RH  033%=      5-min Rain = 0
KAM1 111758Z 19012KT 31/12 A3015 RMK A01 T03080123  RH  032%=      5-min Rain = 0
KAM1 111759Z 19013G18KT 31/13 A3015 RMK A01 T03050126  RH  033%=      5-min Rain = 0
KAM1 111800Z 19014KT 31/13 A3015 RMK A01 T03060125  RH  033%=      5-min Rain = 0
KAM1 111801Z 18011KT 31/13 A3015 RMK A01 T03080127  RH  033%=      5-min Rain = 0
KAM1 111802Z 17012KT 31/13 A3015 RMK A01 T03090127  RH  033%=      5-min Rain = 0
KAM1 111803Z 17011KT 31/13 A3015 RMK A01 T03070128  RH  033%=      5-min Rain = 0
KAM1 111804Z 17012G17KT 31/13 A3015 RMK A01 T03070132  RH  034%=      5-min Rain = 0
KAM1 111805Z 17016KT 31/13 A3014 RMK A01 T03070131  RH  034%=      5-min Rain = 0
KAM1 111806Z 19016KT 31/13 A3014 RMK A01 T03070133  RH  035%=      5-min Rain = 0
KAM1 111807Z 19017KT 31/13 A3014 RMK A01 T03090131  RH  034%=      5-min Rain = 0
KAM1 111808Z 19014KT 31/13 A3014 RMK A01 T03090131  RH  034%=      5-min Rain = 0
KAM1 111809Z 19012KT 31/13 A3014 RMK A01 T03070129  RH  034%=      5-min Rain = 0
KAM1 111810Z 19013KT 31/13 A3014 RMK A01 T03070129  RH  034%=      5-min Rain = 0
KAM1 111811Z 17015KT 31/13 A3014 RMK A01 T03090126  RH  032%=      5-min Rain = 0
KAM1 111812Z 16014KT 31/12 A3014 RMK A01 T03120121  RH  031%=      5-min Rain = 0
KAM1 111813Z 16014KT 31/12 A3014 RMK A01 T03120119  RH  031%=      5-min Rain = 0
KAM1 111814Z 17011KT 31/12 A3014 RMK A01 T03120121  RH  031%=      5-min Rain = 0
KAM1 111815Z 18013KT 31/12 A3014 RMK A01 T03130123  RH  031%=      5-min Rain = 0
KAM1 111816Z 16012KT 31/12 A3014 RMK A01 T03140123  RH  031%=      5-min Rain = 0
KAM1 111817Z 16015KT 32/12 A3014 RMK A01 T03160124  RH  031%=      5-min Rain = 0
KAM1 111818Z 16015KT 32/13 A3014 RMK A01 T03180125  RH  031%=      5-min Rain = 0
KAM1 111819Z 17016KT 32/13 A3014 RMK A01 T03200126  RH  031%=      5-min Rain = 0
KAM1 111820Z 18014KT 32/13 A3014 RMK A01 T03220128  RH  031%=      5-min Rain = 0
KAM1 111821Z 19018KT 33/12 A3014 RMK A01 T03260123  RH  029%=      5-min Rain = 0
KAM1 111822Z 18013KT 32/12 A3014 RMK A01 T03220122  RH  029%=      5-min Rain = 0
KAM1 111823Z 18014KT 32/12 A3014 RMK A01 T03180122  RH  030%=      5-min Rain = 0
KAM1 111824Z 17014KT 32/12 A3014 RMK A01 T03150122  RH  031%=      5-min Rain = 0
KAM1 111825Z 17012KT 31/13 A3014 RMK A01 T03140125  RH  032%=      5-min Rain = 0
KAM1 111826Z 16016KT 32/13 A3014 RMK A01 T03160128  RH  032%=      5-min Rain = 0
KAM1 111827Z 15014KT 32/13 A3014 RMK A01 T03190127  RH  031%=      5-min Rain = 0
KAM1 111828Z 16016KT 32/13 A3014 RMK A01 T03190128  RH  031%=      5-min Rain = 0
KAM1 111829Z 18011KT 32/13 A3014 RMK A01 T03200130  RH  032%=      5-min Rain = 0
KAM1 111830Z 16010KT 32/13 A3014 RMK A01 T03230133  RH  032%=      5-min Rain = 0
KAM1 111831Z 16010KT 33/13 A3014 RMK A01 T03260134  RH  031%=      5-min Rain = 0
KAM1 111832Z 17011KT 33/14 A3014 RMK A01 T03300139  RH  032%=      5-min Rain = 0
KAM1 111833Z 17011KT 33/14 A3014 RMK A01 T03330135  RH  030%=      5-min Rain = 0
KAM1 111834Z 18014G20KT 33/14 A3014 RMK A01 T03320135  RH  030%=      5-min Rain = 0
KAM1 111835Z 20014KT 33/13 A3014 RMK A01 T03310132  RH  030%=      5-min Rain = 0
KAM1 111836Z 18017G23KT 33/13 A3014 RMK A01 T03290129  RH  030%=      5-min Rain = 0
KAM1 111837Z 18012KT 32/13 A3014 RMK A01 T03240128  RH  030%=      5-min Rain = 0
KAM1 111838Z 19012G20KT 32/13 A3013 RMK A01 T03230128  RH  031%=      5-min Rain = 0
KAM1 111839Z 16016KT 32/13 A3013 RMK A01 T03230130  RH  031%=      5-min Rain = 0
KAM1 111840Z 16013KT 32/12 A3014 RMK A01 T03240124  RH  030%=      5-min Rain = 0
KAM1 111841Z 16011KT 32/13 A3014 RMK A01 T03200125  RH  031%=      5-min Rain = 0
KAM1 111842Z 16011KT 32/13 A3013 RMK A01 T03180126  RH  031%=      5-min Rain = 0
KAM1 111843Z 14015KT 32/13 A3013 RMK A01 T03180127  RH  031%=      5-min Rain = 0
KAM1 111844Z 15013KT 32/13 A3013 RMK A01 T03210130  RH  031%=      5-min Rain = 0
KAM1 111845Z 16012KT 33/13 A3013 RMK A01 T03260130  RH  031%=      5-min Rain = 0
KAM1 111846Z 17009KT 33/13 A3013 RMK A01 T03270131  RH  031%=      5-min Rain = 0
KAM1 111847Z 18017G22KT 33/13 A3013 RMK A01 T03290129  RH  030%=      5-min Rain = 0
KAM1 111848Z 19019KT 33/13 A3013 RMK A01 T03290125  RH  029%=      5-min Rain = 0
KAM1 111849Z 20014KT 33/13 A3013 RMK A01 T03250126  RH  030%=      5-min Rain = 0
KAM1 111850Z 20014KT 32/13 A3013 RMK A01 T03240126  RH  030%=      5-min Rain = 0
KAM1 111851Z 20012KT 32/13 A3013 RMK A01 T03240128  RH  030%=      5-min Rain = 0
KAM1 111852Z 20012KT 32/13 A3013 RMK A01 T03220127  RH  031%=      5-min Rain = 0
KAM1 111853Z 20008KT 32/13 A3013 RMK A01 T03210126  RH  031%=      5-min Rain = 0
KAM1 111854Z 19012KT 32/13 A3013 RMK A01 T03210130  RH  031%=      5-min Rain = 0
KAM1 111855Z 19015KT 33/13 A3013 RMK A01 T03250133  RH  031%=      5-min Rain = 0
KAM1 111856Z 18016KT 33/13 A3013 RMK A01 T03270131  RH  030%=      5-min Rain = 0
KAM1 111857Z 17013KT 33/13 A3013 RMK A01 T03260131  RH  031%=      5-min Rain = 0
KAM1 111858Z 19012KT 33/13 A3012 RMK A01 T03250130  RH  030%=      5-min Rain = 0
KAM1 111859Z 18015G20KT 33/13 A3012 RMK A01 T03250133  RH  031%=      5-min Rain = 0
KAM1 111900Z 19018G23KT 33/13 A3012 RMK A01 T03300131  RH  030%=      5-min Rain = 0
KAM1 111901Z 19016KT 33/13 A3012 RMK A01 T03330127  RH  029%=      5-min Rain = 0
KAM1 111902Z 18013G18KT 33/13 A3013 RMK A01 T03300127  RH  029%=      5-min Rain = 0
KAM1 111903Z 20012KT 33/13 A3012 RMK A01 T03290126  RH  029%=      5-min Rain = 0
KAM1 111904Z 17017G24KT 33/13 A3012 RMK A01 T03280127  RH  029%=      5-min Rain = 0
KAM1 111905Z 18017KT 33/13 A3012 RMK A01 T03300125  RH  029%=      5-min Rain = 0
KAM1 111906Z 18016KT 33/12 A3012 RMK A01 T03300123  RH  028%=      5-min Rain = 0
KAM1 111907Z 21011KT 33/12 A3012 RMK A01 T03290123  RH  029%=      5-min Rain = 0
KAM1 111908Z 19014KT 33/12 A3012 RMK A01 T03270124  RH  029%=      5-min Rain = 0
KAM1 111909Z 19012KT 33/13 A3012 RMK A01 T03300128  RH  029%=      5-min Rain = 0
KAM1 111910Z 18016G22KT 34/13 A3012 RMK A01 T03380127  RH  028%=      5-min Rain = 0
KAM1 111911Z 17020KT 34/12 A3012 RMK A01 T03380124  RH  027%=      5-min Rain = 0
KAM1 111912Z 17019KT 34/12 A3012 RMK A01 T03350124  RH  028%=      5-min Rain = 0
KAM1 111913Z 18016KT 33/13 A3012 RMK A01 T03340125  RH  028%=      5-min Rain = 0
KAM1 111914Z 17017KT 33/13 A3012 RMK A01 T03330127  RH  029%=      5-min Rain = 0
KAM1 111915Z 17014KT 33/12 A3012 RMK A01 T03330123  RH  028%=      5-min Rain = 0
KAM1 111916Z 17013KT 33/12 A3012 RMK A01 T03290124  RH  029%=      5-min Rain = 0
KAM1 111917Z 17015KT 33/12 A3012 RMK A01 T03280122  RH  029%=      5-min Rain = 0
KAM1 111918Z 16011G16KT 33/12 A3012 RMK A01 T03280123  RH  029%=      5-min Rain = 0
KAM1 111919Z 17012KT 33/12 A3012 RMK A01 T03270123  RH  029%=      5-min Rain = 0
KAM1 111920Z 17011KT 33/12 A3012 RMK A01 T03280124  RH  029%=      5-min Rain = 0
KAM1 111921Z 18009KT 33/12 A3012 RMK A01 T03260124  RH  029%=      5-min Rain = 0
KAM1 111922Z 17010KT 32/12 A3012 RMK A01 T03210123  RH  030%=      5-min Rain = 0
KAM1 111923Z 16013KT 32/12 A3012 RMK A01 T03180123  RH  030%=      5-min Rain = 0
KAM1 111924Z 18016KT 32/13 A3012 RMK A01 T03170125  RH  031%=      5-min Rain = 0
KAM1 111925Z 17016KT 32/13 A3012 RMK A01 T03180127  RH  031%=      5-min Rain = 0
KAM1 111926Z 16017KT 32/13 A3012 RMK A01 T03180126  RH  031%=      5-min Rain = 0
KAM1 111927Z 16016KT 32/13 A3012 RMK A01 T03150125  RH  031%=      5-min Rain = 0
KAM1 111928Z 16014KT 31/13 A3011 RMK A01 T03130127  RH  032%=      5-min Rain = 0
KAM1 111929Z 16017KT 32/13 A3011 RMK A01 T03170129  RH  032%=      5-min Rain = 0
KAM1 111930Z 17013KT 32/13 A3011 RMK A01 T03220131  RH  031%=      5-min Rain = 0
KAM1 111931Z 19013KT 32/13 A3011 RMK A01 T03230129  RH  031%=      5-min Rain = 0
KAM1 111932Z 19015KT 32/13 A3011 RMK A01 T03200128  RH  031%=      5-min Rain = 0
KAM1 111933Z 18016KT 32/13 A3011 RMK A01 T03160128  RH  032%=      5-min Rain = 0
KAM1 111934Z 18014KT 32/13 A3011 RMK A01 T03170133  RH  032%=      5-min Rain = 0
KAM1 111935Z 18018KT 32/13 A3011 RMK A01 T03220130  RH  031%=      5-min Rain = 0
KAM1 111936Z 19016G21KT 32/13 A3011 RMK A01 T03230130  RH  031%=      5-min Rain = 0
KAM1 111937Z 19014G19KT 33/13 A3011 RMK A01 T03260131  RH  031%=      5-min Rain = 0
KAM1 111938Z 19016KT 33/13 A3011 RMK A01 T03260131  RH  031%=      5-min Rain = 0
KAM1 111939Z 20014KT 33/13 A3011 RMK A01 T03270131  RH  031%=      5-min Rain = 0
KAM1 111940Z 20010KT 32/13 A3011 RMK A01 T03230129  RH  031%=      5-min Rain = 0
KAM1 111941Z 17013KT 32/13 A3011 RMK A01 T03200129  RH  031%=      5-min Rain = 0
KAM1 111942Z 19016KT 32/13 A3011 RMK A01 T03180128  RH  032%=      5-min Rain = 0
KAM1 111943Z 17016KT 32/13 A3011 RMK A01 T03160129  RH  032%=      5-min Rain = 0
KAM1 111944Z 17018KT 32/13 A3011 RMK A01 T03160129  RH  032%=      5-min Rain = 0
KAM1 111945Z 17017KT 32/13 A3011 RMK A01 T03200132  RH  032%=      5-min Rain = 0
KAM1 111946Z 18016G21KT 33/13 A3011 RMK A01 T03260133  RH  031%=      5-min Rain = 0
KAM1 111947Z 17017KT 33/13 A3011 RMK A01 T03300133  RH  030%=      5-min Rain = 0
KAM1 111948Z 18016KT 33/13 A3011 RMK A01 T03300132  RH  030%=      5-min Rain = 0
KAM1 111949Z 18011KT 33/13 A3011 RMK A01 T03290131  RH  030%=      5-min Rain = 0
KAM1 111950Z 19015KT 33/13 A3011 RMK A01 T03280133  RH  031%=      5-min Rain = 0
KAM1 111951Z 17016KT 33/13 A301 RMK A01 T03280130  RH  030%=      5-min Rain = 0
KAM1 111952Z 18013KT 33/13 A301 RMK A01 T03280130  RH  030%=      5-min Rain = 0
KAM1 111953Z 19010KT 33/13 A301 RMK A01 T03270130  RH  030%=      5-min Rain = 0
KAM1 111954Z 18013KT 32/13 A301 RMK A01 T03240131  RH  031%=      5-min Rain = 0
KAM1 111955Z 18017G23KT 32/13 A301 RMK A01 T03220129  RH  031%=      5-min Rain = 0
KAM1 111956Z 17017G23KT 32/13 A301 RMK A01 T03200128  RH  031%=      5-min Rain = 0
KAM1 111957Z 17020KT 32/13 A301 RMK A01 T03200128  RH  031%=      5-min Rain = 0
KAM1 111958Z 18019KT 32/13 A301 RMK A01 T03230129  RH  031%=      5-min Rain = 0
KAM1 111959Z 18015KT 33/13 A301 RMK A01 T03250130  RH  031%=      5-min Rain = 0
KAM1 112000Z 18013KT 33/13 A301 RMK A01 T03270131  RH  030%=      5-min Rain = 0
KAM1 112001Z 18014KT 33/13 A301 RMK A01 T03300132  RH  030%=      5-min Rain = 0
KAM1 112002Z 19016G21KT 33/13 A301 RMK A01 T03300130  RH  030%=      5-min Rain = 0
KAM1 112003Z 19010G17KT 33/13 A301 RMK A01 T03280131  RH  030%=      5-min Rain = 0
KAM1 112004Z 18015KT 33/13 A301 RMK A01 T03280134  RH  031%=      5-min Rain = 0
KAM1 112005Z 18018KT 33/13 A301 RMK A01 T03330133  RH  030%=      5-min Rain = 0
KAM1 112006Z 18015KT 33/13 A301 RMK A01 T03310128  RH  029%=      5-min Rain = 0
KAM1 112007Z 19011KT 33/13 A301 RMK A01 T03260129  RH  030%=      5-min Rain = 0
KAM1 112008Z 18010KT 32/13 A301 RMK A01 T03220128  RH  031%=      5-min Rain = 0
KAM1 112009Z 19014KT 32/13 A301 RMK A01 T03190130  RH  032%=      5-min Rain = 0
KAM1 112010Z 18021G26KT 32/13 A3009 RMK A01 T03180133  RH  032%=      5-min Rain = 0
KAM1 112011Z 18019G24KT 32/13 A301 RMK A01 T03200133  RH  032%=      5-min Rain = 0
KAM1 112012Z 16014KT 32/14 A301 RMK A01 T03240135  RH  032%=      5-min Rain = 0
KAM1 112013Z 16014KT 33/14 A301 RMK A01 T03270135  RH  031%=      5-min Rain = 0
KAM1 112014Z 18016G21KT 33/14 A301 RMK A01 T03280135  RH  031%=      5-min Rain = 0
KAM1 112015Z 18016KT 33/13 A301 RMK A01 T03280134  RH  031%=      5-min Rain = 0
KAM1 112016Z 19016KT 33/14 A301 RMK A01 T03290135  RH  031%=      5-min Rain = 0
KAM1 112017Z 19018KT 33/14 A3009 RMK A01 T03290135  RH  031%=      5-min Rain = 0
KAM1 112018Z 18013KT 33/13 A301 RMK A01 T03280133  RH  031%=      5-min Rain = 0
KAM1 112019Z 18012KT 33/13 A3009 RMK A01 T03250132  RH  031%=      5-min Rain = 0
KAM1 112020Z 18012KT 32/13 A3009 RMK A01 T03230134  RH  032%=      5-min Rain = 0
KAM1 112021Z 18017KT 33/14 A3009 RMK A01 T03270139  RH  032%=      5-min Rain = 0
KAM1 112022Z 18016KT 33/14 A3009 RMK A01 T03330136  RH  030%=      5-min Rain = 0
KAM1 112023Z 18017KT 33/13 A3009 RMK A01 T03310133  RH  030%=      5-min Rain = 0
KAM1 112024Z 16016KT 32/13 A3009 RMK A01 T03240131  RH  031%=      5-min Rain = 0
KAM1 112025Z 16016KT 32/13 A3009 RMK A01 T03230134  RH  032%=      5-min Rain = 0
KAM1 112026Z 16014G19KT 33/14 A3009 RMK A01 T03250135  RH  031%=      5-min Rain = 0
KAM1 112027Z 16020KT 33/14 A3009 RMK A01 T03310137  RH  031%=      5-min Rain = 0
KAM1 112028Z 16018G23KT 33/13 A3009 RMK A01 T03300133  RH  030%=      5-min Rain = 0
KAM1 112029Z 15018G24KT 33/14 A3009 RMK A01 T03300137  RH  031%=      5-min Rain = 0
KAM1 112030Z 16015KT 33/14 A3009 RMK A01 T03330136  RH  030%=      5-min Rain = 0
KAM1 112031Z 16015KT 33/14 A3009 RMK A01 T03340137  RH  030%=      5-min Rain = 0
KAM1 112032Z 16019KT 34/14 A3009 RMK A01 T03350136  RH  030%=      5-min Rain = 0
KAM1 112033Z 16016KT 34/13 A3009 RMK A01 T03350133  RH  030%=      5-min Rain = 0
KAM1 112034Z 16017KT 33/13 A3009 RMK A01 T03290128  RH  030%=      5-min Rain = 0
KAM1 112035Z 16016KT 32/13 A3009 RMK A01 T03230127  RH  030%=      5-min Rain = 0
KAM1 112036Z 16013KT 32/13 A3009 RMK A01 T03230128  RH  031%=      5-min Rain = 0
KAM1 112037Z 17015KT 33/13 A3009 RMK A01 T03290133  RH  030%=      5-min Rain = 0
KAM1 112038Z 16011KT 33/13 A3008 RMK A01 T03330127  RH  029%=      5-min Rain = 0
KAM1 112039Z 18013KT 33/13 A3008 RMK A01 T03290127  RH  029%=      5-min Rain = 0
KAM1 112040Z 17013KT 33/13 A3008 RMK A01 T03270128  RH  030%=      5-min Rain = 0
KAM1 112041Z 18015KT 33/13 A3008 RMK A01 T03290130  RH  030%=      5-min Rain = 0
KAM1 112042Z 20019G24KT 33/13 A3008 RMK A01 T03340130  RH  029%=      5-min Rain = 0
KAM1 112043Z 19017KT 33/13 A3008 RMK A01 T03340130  RH  029%=      5-min Rain = 0
KAM1 112044Z 18017G22KT 33/13 A3008 RMK A01 T03340130  RH  029%=      5-min Rain = 0
KAM1 112045Z 18018KT 34/13 A3008 RMK A01 T03350128  RH  029%=      5-min Rain = 0
KAM1 112046Z 18019G24KT 33/13 A3008 RMK A01 T03330126  RH  029%=      5-min Rain = 0
KAM1 112047Z 17015KT 33/13 A3008 RMK A01 T03320125  RH  029%=      5-min Rain = 0
KAM1 112048Z 17013KT 33/12 A3008 RMK A01 T03290123  RH  029%=      5-min Rain = 0
KAM1 112049Z 17019G24KT 33/12 A3008 RMK A01 T03280124  RH  029%=      5-min Rain = 0
KAM1 112050Z 17013G19KT 33/12 A3008 RMK A01 T03250121  RH  029%=      5-min Rain = 0
KAM1 112051Z 18016KT 32/12 A3008 RMK A01 T03220123  RH  030%=      5-min Rain = 0
KAM1 112052Z 20018KT 32/13 A3008 RMK A01 T03240127  RH  030%=      5-min Rain = 0
KAM1 112053Z 20018KT 33/13 A3008 RMK A01 T03270127  RH  030%=      5-min Rain = 0
KAM1 112054Z 20017KT 33/13 A3008 RMK A01 T03290128  RH  030%=      5-min Rain = 0
KAM1 112055Z 18016KT 33/13 A3008 RMK A01 T03300126  RH  029%=      5-min Rain = 0
KAM1 112056Z 19016KT 33/13 A3008 RMK A01 T03310126  RH  029%=      5-min Rain = 0
KAM1 112057Z 18016KT 33/13 A3008 RMK A01 T03320130  RH  029%=      5-min Rain = 0
KAM1 112058Z 18020KT 33/13 A3008 RMK A01 T03320126  RH  029%=      5-min Rain = 0
KAM1 112059Z 17020KT 33/12 A3008 RMK A01 T03260124  RH  029%=      5-min Rain = 0
KAM1 112100Z 18018KT 33/13 A3008 RMK A01 T03250125  RH  030%=      5-min Rain = 0
KAM1 112101Z 17011KT 33/13 A3008 RMK A01 T03270127  RH  030%=      5-min Rain = 0
KAM1 112102Z 16015G20KT 33/13 A3007 RMK A01 T03310130  RH  029%=      5-min Rain = 0
KAM1 112103Z 16019KT 33/13 A3007 RMK A01 T03310125  RH  028%=      5-min Rain = 0
KAM1 112104Z 17019KT 33/13 A3007 RMK A01 T03300127  RH  029%=      5-min Rain = 0
KAM1 112105Z 16019KT 33/13 A3007 RMK A01 T03330125  RH  028%=      5-min Rain = 0
KAM1 112106Z 16016KT 33/13 A3007 RMK A01 T03330126  RH  029%=      5-min Rain = 0
KAM1 112107Z 17015KT 33/13 A3007 RMK A01 T03340128  RH  029%=      5-min Rain = 0
KAM1 112108Z 17014G20KT 34/13 A3007 RMK A01 T03360128  RH  028%=      5-min Rain = 0
KAM1 112109Z 18013KT 34/13 A3007 RMK A01 T03360125  RH  028%=      5-min Rain = 0
KAM1 112110Z 19014KT 34/13 A3007 RMK A01 T03350129  RH  029%=      5-min Rain = 0
KAM1 112111Z 18017KT 34/13 A3007 RMK A01 T03360131  RH  029%=      5-min Rain = 0
KAM1 112112Z 20014KT 34/13 A3007 RMK A01 T03350129  RH  029%=      5-min Rain = 0
KAM1 112113Z 20012KT 33/13 A3007 RMK A01 T03320130  RH  029%=      5-min Rain = 0
KAM1 112114Z 19015KT 33/13 A3007 RMK A01 T03330132  RH  030%=      5-min Rain = 0
KAM1 112115Z 19017KT 34/13 A3007 RMK A01 T03350131  RH  029%=      5-min Rain = 0
KAM1 112116Z 18014KT 34/13 A3007 RMK A01 T03350131  RH  029%=      5-min Rain = 0
KAM1 112117Z 18018KT 34/13 A3007 RMK A01 T03360130  RH  029%=      5-min Rain = 0
KAM1 112118Z 19018KT 33/13 A3007 RMK A01 T03310125  RH  029%=      5-min Rain = 0
KAM1 112119Z 18017KT 32/12 A3007 RMK A01 T03230123  RH  030%=      5-min Rain = 0
KAM1 112120Z 18016KT 32/12 A3007 RMK A01 T03180124  RH  031%=      5-min Rain = 0
KAM1 112121Z 18021KT 32/13 A3007 RMK A01 T03180127  RH  031%=      5-min Rain = 0
KAM1 112122Z 18017G22KT 32/13 A3007 RMK A01 T03210128  RH  031%=      5-min Rain = 0
KAM1 112123Z 17015KT 33/13 A3006 RMK A01 T03250131  RH  031%=      5-min Rain = 0
KAM1 112124Z 18015KT 33/14 A3006 RMK A01 T03300135  RH  031%=      5-min Rain = 0
KAM1 112125Z 18019KT 34/13 A3006 RMK A01 T03360133  RH  029%=      5-min Rain = 0
KAM1 112126Z 19017KT 34/13 A3006 RMK A01 T03350131  RH  029%=      5-min Rain = 0
KAM1 112127Z 19015KT 33/13 A3006 RMK A01 T03320131  RH  030%=      5-min Rain = 0
KAM1 112128Z 18016KT 33/13 A3006 RMK A01 T03300132  RH  030%=      5-min Rain = 0
KAM1 112129Z 19019KT 33/13 A3006 RMK A01 T03300134  RH  030%=      5-min Rain = 0
KAM1 112130Z 19016KT 33/14 A3006 RMK A01 T03300136  RH  031%=      5-min Rain = 0
KAM1 112131Z 19017KT 33/14 A3006 RMK A01 T03310135  RH  031%=      5-min Rain = 0
KAM1 112132Z 19016KT 33/14 A3006 RMK A01 T03320136  RH  031%=      5-min Rain = 0
KAM1 112133Z 17014KT 33/14 A3006 RMK A01 T03330136  RH  031%=      5-min Rain = 0
KAM1 112134Z 16014KT 34/13 A3006 RMK A01 T03350134  RH  030%=      5-min Rain = 0
KAM1 112135Z 18017KT 34/13 A3006 RMK A01 T03350134  RH  030%=      5-min Rain = 0
KAM1 112136Z 17016KT 33/13 A3006 RMK A01 T03290132  RH  030%=      5-min Rain = 0
KAM1 112137Z 18015KT 32/13 A3006 RMK A01 T03230131  RH  031%=      5-min Rain = 0
KAM1 112138Z 18014KT 32/13 A3006 RMK A01 T03190132  RH  032%=      5-min Rain = 0
KAM1 112139Z 17012KT 32/13 A3006 RMK A01 T03180133  RH  032%=      5-min Rain = 0
KAM1 112140Z 18011KT 32/13 A3006 RMK A01 T03170133  RH  033%=      5-min Rain = 0
KAM1 112141Z 17011KT 32/13 A3006 RMK A01 T03180134  RH  033%=      5-min Rain = 0
KAM1 112142Z 18012KT 32/13 A3006 RMK A01 T03200134  RH  032%=      5-min Rain = 0
KAM1 112143Z 17014KT 32/13 A3006 RMK A01 T03190132  RH  032%=      5-min Rain = 0
KAM1 112144Z 15015G20KT 32/13 A3006 RMK A01 T03190133  RH  032%=      5-min Rain = 0
KAM1 112145Z 16014KT 32/14 A3006 RMK A01 T03230137  RH  032%=      5-min Rain = 0
KAM1 112146Z 15014KT 33/14 A3006 RMK A01 T03290136  RH  031%=      5-min Rain = 0
KAM1 112147Z 14014KT 33/14 A3005 RMK A01 T03320138  RH  031%=      5-min Rain = 0
KAM1 112148Z 15017KT 34/14 A3005 RMK A01 T03360135  RH  030%=      5-min Rain = 0
KAM1 112149Z 18016KT 34/14 A3006 RMK A01 T03350135  RH  030%=      5-min Rain = 0
KAM1 112150Z 18014KT 34/13 A3006 RMK A01 T03350134  RH  030%=      5-min Rain = 0
KAM1 112151Z 17014KT 33/13 A3006 RMK A01 T03340134  RH  030%=      5-min Rain = 0
KAM1 112152Z 17016KT 33/13 A3006 RMK A01 T03320133  RH  030%=      5-min Rain = 0
KAM1 112153Z 15017KT 33/13 A3006 RMK A01 T03280132  RH  031%=      5-min Rain = 0
KAM1 112154Z 15014KT 32/13 A3006 RMK A01 T03240132  RH  031%=      5-min Rain = 0
KAM1 112155Z 15011KT 32/13 A3006 RMK A01 T03210134  RH  032%=      5-min Rain = 0
KAM1 112156Z 16014G19KT 32/14 A3005 RMK A01 T03220136  RH  032%=      5-min Rain = 0
KAM1 112157Z 16015KT 33/14 A3005 RMK A01 T03250136  RH  032%=      5-min Rain = 0
KAM1 112158Z 16015KT 33/14 A3006 RMK A01 T03270136  RH  031%=      5-min Rain = 0
KAM1 112159Z 16017KT 33/13 A3005 RMK A01 T03270133  RH  031%=      5-min Rain = 0
KAM1 112200Z 16014KT 32/13 A3005 RMK A01 T03230131  RH  031%=      5-min Rain = 0
KAM1 112201Z 17014KT 32/13 A3005 RMK A01 T03220134  RH  032%=      5-min Rain = 0
KAM1 112202Z 15015KT 32/13 A3005 RMK A01 T03240134  RH  032%=      5-min Rain = 0
KAM1 112203Z 15016G21KT 33/14 A3005 RMK A01 T03280135  RH  031%=      5-min Rain = 0
KAM1 112204Z 15018G23KT 33/14 A3005 RMK A01 T03330138  RH  031%=      5-min Rain = 0
KAM1 112205Z 16016KT 34/14 A3005 RMK A01 T03370137  RH  030%=      5-min Rain = 0
KAM1 112206Z 15016KT 34/14 A3005 RMK A01 T03390136  RH  030%=      5-min Rain = 0
KAM1 112207Z 15017KT 34/13 A3005 RMK A01 T03360133  RH  029%=      5-min Rain = 0
KAM1 112208Z 15019KT 33/13 A3005 RMK A01 T03300131  RH  030%=      5-min Rain = 0
KAM1 112209Z 17018KT 33/13 A3005 RMK A01 T03300133  RH  030%=      5-min Rain = 0
KAM1 112210Z 16015KT 33/13 A3005 RMK A01 T03320134  RH  030%=      5-min Rain = 0
KAM1 112211Z 15012KT 33/14 A3005 RMK A01 T03340136  RH  030%=      5-min Rain = 0
KAM1 112212Z 16016KT 34/14 A3005 RMK A01 T03370138  RH  030%=      5-min Rain = 0
KAM1 112213Z 17015KT 34/13 A3005 RMK A01 T03400133  RH  029%=      5-min Rain = 0
KAM1 112214Z 16014KT 34/13 A3005 RMK A01 T03370130  RH  029%=      5-min Rain = 0
KAM1 112215Z 15013KT 33/14 A3005 RMK A01 T03330135  RH  030%=      5-min Rain = 0
KAM1 112216Z 16013KT 33/14 A3005 RMK A01 T03320136  RH  031%=      5-min Rain = 0
KAM1 112217Z 16016KT 33/14 A3005 RMK A01 T03310135  RH  031%=      5-min Rain = 0
KAM1 112218Z 16015KT 33/13 A3005 RMK A01 T03280134  RH  031%=      5-min Rain = 0
KAM1 112219Z 17014KT 33/13 A3005 RMK A01 T03260132  RH  031%=      5-min Rain = 0
KAM1 112220Z 19013KT 32/13 A3005 RMK A01 T03230130  RH  031%=      5-min Rain = 0
KAM1 112221Z 19014KT 32/13 A3005 RMK A01 T03220129  RH  031%=      5-min Rain = 0
KAM1 112222Z 19013KT 32/13 A3005 RMK A01 T03210130  RH  031%=      5-min Rain = 0
KAM1 112223Z 18013KT 32/13 A3005 RMK A01 T03230131  RH  031%=      5-min Rain = 0
KAM1 112224Z 18014KT 33/13 A3005 RMK A01 T03250127  RH  030%=      5-min Rain = 0
KAM1 112225Z 17013KT 32/13 A3005 RMK A01 T03230128  RH  030%=      5-min Rain = 0
KAM1 112226Z 17012KT 33/13 A3005 RMK A01 T03250129  RH  031%=      5-min Rain = 0
KAM1 112227Z 16009KT 33/13 A3005 RMK A01 T03250129  RH  030%=      5-min Rain = 0
KAM1 112228Z 17009KT 33/13 A3005 RMK A01 T03250133  RH  031%=      5-min Rain = 0
KAM1 112229Z 16015KT 33/13 A3005 RMK A01 T03270134  RH  031%=      5-min Rain = 0
KAM1 112230Z 16013KT 33/13 A3005 RMK A01 T03260133  RH  031%=      5-min Rain = 0
KAM1 112231Z 17012KT 33/13 A3005 RMK A01 T03250134  RH  031%=      5-min Rain = 0
KAM1 112232Z 18012KT 33/13 A3005 RMK A01 T03250131  RH  031%=      5-min Rain = 0
KAM1 112233Z 18011KT 33/13 A3005 RMK A01 T03250132  RH  031%=      5-min Rain = 0
KAM1 112234Z 19012G17KT 33/13 A3005 RMK A01 T03270132  RH  031%=      5-min Rain = 0
KAM1 112235Z 19013KT 33/13 A3004 RMK A01 T03290130  RH  030%=      5-min Rain = 0
KAM1 112236Z 17012KT 33/13 A3005 RMK A01 T03300131  RH  030%=      5-min Rain = 0
KAM1 112237Z 16013KT 33/13 A3005 RMK A01 T03320131  RH  030%=      5-min Rain = 0
KAM1 112238Z 15016KT 33/13 A3005 RMK A01 T03320132  RH  030%=      5-min Rain = 0
KAM1 112239Z 16015KT 33/13 A3005 RMK A01 T03310132  RH  030%=      5-min Rain = 0
KAM1 112240Z 15010KT 33/13 A3005 RMK A01 T03300133  RH  030%=      5-min Rain = 0
KAM1 112241Z 16010KT 33/13 A3005 RMK A01 T03330134  RH  030%=      5-min Rain = 0
KAM1 112242Z 17013KT 33/13 A3005 RMK A01 T03340134  RH  030%=      5-min Rain = 0
KAM1 112243Z 17017KT 34/13 A3005 RMK A01 T03370130  RH  029%=      5-min Rain = 0
KAM1 112244Z 17011KT 34/13 A3005 RMK A01 T03360128  RH  028%=      5-min Rain = 0
KAM1 112245Z 17012KT 34/13 A3005 RMK A01 T03360129  RH  029%=      5-min Rain = 0
KAM1 112246Z 17015G21KT 34/13 A3005 RMK A01 T03350129  RH  029%=      5-min Rain = 0
KAM1 112247Z 17016KT 34/13 A3005 RMK A01 T03360128  RH  028%=      5-min Rain = 0
KAM1 112248Z 17014KT 34/13 A3005 RMK A01 T03360129  RH  029%=      5-min Rain = 0
KAM1 112249Z 17017KT 34/13 A3005 RMK A01 T03380129  RH  028%=      5-min Rain = 0
KAM1 112250Z 18017KT 34/13 A3004 RMK A01 T03390130  RH  028%=      5-min Rain = 0
KAM1 112251Z 18014KT 34/13 A3004 RMK A01 T03370130  RH  029%=      5-min Rain = 0
KAM1 112252Z 16016KT 34/13 A3004 RMK A01 T03360132  RH  029%=      5-min Rain = 0
KAM1 112253Z 15018KT 34/13 A3004 RMK A01 T03370131  RH  029%=      5-min Rain = 0
KAM1 112254Z 15015KT 34/13 A3005 RMK A01 T03360130  RH  029%=      5-min Rain = 0
KAM1 112255Z 15018KT 33/13 A3005 RMK A01 T03330134  RH  030%=      5-min Rain = 0
KAM1 112256Z 16015KT 33/13 A3005 RMK A01 T03300134  RH  031%=      5-min Rain = 0
KAM1 112257Z 17014KT 33/14 A3005 RMK A01 T03290136  RH  031%=      5-min Rain = 0
KAM1 112258Z 17015KT 33/14 A3005 RMK A01 T03330138  RH  031%=      5-min Rain = 0
KAM1 112259Z 16017KT 33/14 A3005 RMK A01 T03340136  RH  030%=      5-min Rain = 0
KAM1 112300Z 16017KT 33/14 A3005 RMK A01 T03340136  RH  030%=      5-min Rain = 0
KAM1 112301Z 17016KT 33/14 A3004 RMK A01 T03340137  RH  030%=      5-min Rain = 0
KAM1 112302Z 16013KT 33/14 A3005 RMK A01 T03340139  RH  031%=      5-min Rain = 0
KAM1 112303Z 15016G22KT 33/14 A3004 RMK A01 T03340138  RH  031%=      5-min Rain = 0
KAM1 112304Z 15018KT 33/14 A3004 RMK A01 T03310135  RH  031%=      5-min Rain = 0
KAM1 112305Z 16019KT 33/13 A3004 RMK A01 T03270133  RH  031%=      5-min Rain = 0
KAM1 112306Z 16017KT 32/13 A3004 RMK A01 T03240133  RH  031%=      5-min Rain = 0
KAM1 112307Z 17018G24KT 32/14 A3004 RMK A01 T03230135  RH  032%=      5-min Rain = 0
KAM1 112308Z 16019KT 32/13 A3004 RMK A01 T03220134  RH  032%=      5-min Rain = 0
KAM1 112309Z 17018KT 32/13 A3004 RMK A01 T03210133  RH  032%=      5-min Rain = 0
KAM1 112310Z 17018KT 32/13 A3004 RMK A01 T03200133  RH  032%=      5-min Rain = 0
KAM1 112311Z 17016KT 32/13 A3004 RMK A01 T03190133  RH  032%=      5-min Rain = 0
KAM1 112312Z 17017KT 32/13 A3004 RMK A01 T03180133  RH  032%=      5-min Rain = 0
KAM1 112313Z 16017KT 32/13 A3004 RMK A01 T03180133  RH  032%=      5-min Rain = 0
KAM1 112314Z 17019KT 32/13 A3004 RMK A01 T03180132  RH  032%=      5-min Rain = 0
KAM1 112315Z 17018KT 32/13 A3005 RMK A01 T03170133  RH  033%=      5-min Rain = 0
KAM1 112316Z 16017KT 32/13 A3004 RMK A01 T03170133  RH  033%=      5-min Rain = 0
KAM1 112317Z 16016G21KT 32/13 A3005 RMK A01 T03160134  RH  033%=      5-min Rain = 0
KAM1 112318Z 16016G22KT 32/13 A3004 RMK A01 T03160134  RH  033%=      5-min Rain = 0
KAM1 112319Z 16017KT 32/14 A3005 RMK A01 T03180136  RH  033%=      5-min Rain = 0
KAM1 112320Z 16018KT 32/14 A3005 RMK A01 T03210136  RH  033%=      5-min Rain = 0
KAM1 112321Z 15017KT 32/14 A3004 RMK A01 T03220135  RH  032%=      5-min Rain = 0
KAM1 112322Z 16018KT 32/14 A3004 RMK A01 T03230135  RH  032%=      5-min Rain = 0
KAM1 112323Z 15014KT 32/14 A3004 RMK A01 T03230136  RH  032%=      5-min Rain = 0
KAM1 112324Z 15014KT 32/14 A3004 RMK A01 T03230136  RH  032%=      5-min Rain = 0
KAM1 112325Z 15015KT 32/14 A3005 RMK A01 T03240137  RH  032%=      5-min Rain = 0
KAM1 112326Z 15014KT 33/14 A3005 RMK A01 T03260138  RH  032%=      5-min Rain = 0
KAM1 112327Z 14013KT 33/14 A3004 RMK A01 T03270138  RH  032%=      5-min Rain = 0
KAM1 112328Z 15014KT 33/14 A3004 RMK A01 T03280137  RH  031%=      5-min Rain = 0
KAM1 112329Z 15014KT 33/14 A3004 RMK A01 T03280137  RH  032%=      5-min Rain = 0
KAM1 112330Z 15014KT 33/14 A3004 RMK A01 T03280137  RH  031%=      5-min Rain = 0
KAM1 112331Z 16011KT 33/14 A3005 RMK A01 T03270139  RH  032%=      5-min Rain = 0
KAM1 112332Z 17015KT 33/14 A3004 RMK A01 T03290139  RH  032%=      5-min Rain = 0
KAM1 112333Z 19010KT 33/14 A3004 RMK A01 T03310138  RH  031%=      5-min Rain = 0
KAM1 112334Z 19014KT 33/14 A3004 RMK A01 T03330139  RH  031%=      5-min Rain = 0
KAM1 112335Z 18014KT 33/14 A3004 RMK A01 T03340136  RH  030%=      5-min Rain = 0
KAM1 112336Z 18015KT 33/14 A3004 RMK A01 T03340136  RH  030%=      5-min Rain = 0
KAM1 112337Z 17015G20KT 33/14 A3004 RMK A01 T03330135  RH  030%=      5-min Rain = 0
KAM1 112338Z 16015G20KT 33/13 A3004 RMK A01 T03310134  RH  030%=      5-min Rain = 0
KAM1 112339Z 16015KT 33/14 A3004 RMK A01 T03310136  RH  031%=      5-min Rain = 0
KAM1 112340Z 16017KT 33/14 A3004 RMK A01 T03330136  RH  030%=      5-min Rain = 0
KAM1 112341Z 16018KT 33/14 A3004 RMK A01 T03330135  RH  030%=      5-min Rain = 0
KAM1 112342Z 16018KT 33/13 A3004 RMK A01 T03320134  RH  030%=      5-min Rain = 0
KAM1 112343Z 16016KT 33/13 A3004 RMK A01 T03280131  RH  030%=      5-min Rain = 0
KAM1 112344Z 16015KT 32/13 A3004 RMK A01 T03240132  RH  031%=      5-min Rain = 0
KAM1 112345Z 16016G21KT 32/13 A3004 RMK A01 T03230132  RH  031%=      5-min Rain = 0
KAM1 112346Z 16018KT 32/13 A3004 RMK A01 T03230133  RH  031%=      5-min Rain = 0
KAM1 112347Z 16019KT 33/13 A3004 RMK A01 T03250131  RH  031%=      5-min Rain = 0
KAM1 112348Z 16018G23KT 33/13 A3004 RMK A01 T03250131  RH  031%=      5-min Rain = 0
KAM1 112349Z 15014KT 33/13 A3004 RMK A01 T03270133  RH  031%=      5-min Rain = 0
KAM1 112350Z 16018KT 33/13 A3004 RMK A01 T03290133  RH  031%=      5-min Rain = 0
KAM1 112351Z 16019KT 33/13 A3004 RMK A01 T03300132  RH  030%=      5-min Rain = 0
KAM1 112352Z 15017KT 33/13 A3005 RMK A01 T03300131  RH  030%=      5-min Rain = 0
KAM1 112353Z 16016G22KT 33/13 A3005 RMK A01 T03300133  RH  030%=      5-min Rain = 0
KAM1 112354Z 14018KT 33/13 A3005 RMK A01 T03300131  RH  030%=      5-min Rain = 0
KAM1 112355Z 14016G21KT 33/13 A3005 RMK A01 T03290132  RH  030%=      5-min Rain = 0
KAM1 112356Z 16018G23KT 33/13 A3005 RMK A01 T03290131  RH  030%=      5-min Rain = 0
KAM1 112357Z 16020KT 33/13 A3005 RMK A01 T03290130  RH  030%=      5-min Rain = 0
KAM1 112358Z 16018KT 33/13 A3005 RMK A01 T03270130  RH  030%=      5-min Rain = 0
KAM1 112359Z 15017KT 33/13 A3005 RMK A01 T03260131  RH  030%=      5-min Rain = 0
KAM1 120000Z 16017KT 33/13 A3005 RMK A01 T03260130  RH  030%=      5-min Rain = 0
KAM1 120001Z 15018KT 33/13 A3005 RMK A01 T03260129  RH  030%=      5-min Rain = 0
KAM1 120002Z 15019KT 33/13 A3005 RMK A01 T03260129  RH  030%=      5-min Rain = 0
KAM1 120003Z 15017KT 33/13 A3005 RMK A01 T03250128  RH  030%=      5-min Rain = 0
KAM1 120004Z 14020KT 32/13 A3005 RMK A01 T03240128  RH  030%=      5-min Rain = 0
KAM1 120005Z 14021KT 32/13 A3005 RMK A01 T03230128  RH  031%=      5-min Rain = 0
KAM1 120006Z 15019G25KT 32/13 A3005 RMK A01 T03210127  RH  031%=      5-min Rain = 0
KAM1 120007Z 16018KT 32/13 A3005 RMK A01 T03200128  RH  031%=      5-min Rain = 0
KAM1 120008Z 14018G24KT 32/13 A3005 RMK A01 T03190126  RH  031%=      5-min Rain = 0
KAM1 120009Z 15019KT 32/13 A3005 RMK A01 T03190126  RH  031%=      5-min Rain = 0
KAM1 120010Z 15017KT 32/13 A3005 RMK A01 T03200126  RH  031%=      5-min Rain = 0
KAM1 120011Z 15018KT 32/13 A3005 RMK A01 T03200127  RH  031%=      5-min Rain = 0
KAM1 120012Z 15018KT 32/13 A3005 RMK A01 T03210126  RH  030%=      5-min Rain = 0
KAM1 120013Z 15018KT 32/13 A3005 RMK A01 T03200126  RH  031%=      5-min Rain = 0
KAM1 120014Z 15017KT 32/13 A3005 RMK A01 T03220127  RH  030%=      5-min Rain = 0
KAM1 120015Z 15019KT 32/13 A3005 RMK A01 T03230126  RH  030%=      5-min Rain = 0
KAM1 120016Z 17021KT 32/13 A3005 RMK A01 T03240127  RH  030%=      5-min Rain = 0
KAM1 120017Z 17017G22KT 32/13 A3005 RMK A01 T03240127  RH  030%=      5-min Rain = 0
KAM1 120018Z 17018KT 32/13 A3005 RMK A01 T03240128  RH  030%=      5-min Rain = 0
KAM1 120019Z 17017KT 32/13 A3005 RMK A01 T03240127  RH  030%=      5-min Rain = 0
KAM1 120020Z 17017KT 32/13 A3005 RMK A01 T03230126  RH  030%=      5-min Rain = 0
KAM1 120021Z 17016KT 32/13 A3005 RMK A01 T03210126  RH  030%=      5-min Rain = 0
KAM1 120022Z 17013KT 32/13 A3005 RMK A01 T03210127  RH  031%=      5-min Rain = 0
KAM1 120023Z 17016KT 32/13 A3005 RMK A01 T03210128  RH  031%=      5-min Rain = 0
KAM1 120024Z 17016KT 32/13 A3005 RMK A01 T03200127  RH  031%=      5-min Rain = 0
KAM1 120025Z 17016KT 32/13 A3005 RMK A01 T03190127  RH  031%=      5-min Rain = 0
KAM1 120026Z 17019KT 32/13 A3005 RMK A01 T03180126  RH  031%=      5-min Rain = 0
KAM1 120027Z 18016KT 32/13 A3005 RMK A01 T03180126  RH  031%=      5-min Rain = 0
KAM1 120028Z 18017KT 32/13 A3006 RMK A01 T03180127  RH  031%=      5-min Rain = 0
KAM1 120029Z 16016KT 32/13 A3006 RMK A01 T03170126  RH  031%=      5-min Rain = 0
KAM1 120030Z 17015G20KT 32/13 A3006 RMK A01 T03160125  RH  031%=      5-min Rain = 0
KAM1 120031Z 18015KT 32/13 A3006 RMK A01 T03160125  RH  031%=      5-min Rain = 0
KAM1 120032Z 18016KT 32/13 A3006 RMK A01 T03160126  RH  031%=      5-min Rain = 0
KAM1 120033Z 18015KT 32/13 A3006 RMK A01 T03160125  RH  031%=      5-min Rain = 0
KAM1 120034Z 18016KT 32/13 A3006 RMK A01 T03150125  RH  031%=      5-min Rain = 0
KAM1 120035Z 17016KT 32/13 A3006 RMK A01 T03150125  RH  031%=      5-min Rain = 0
KAM1 120036Z 17015KT 32/13 A3006 RMK A01 T03150125  RH  031%=      5-min Rain = 0
KAM1 120037Z 16016G21KT 32/13 A3006 RMK A01 T03150125  RH  031%=      5-min Rain = 0
KAM1 120038Z 16014G19KT 32/13 A3006 RMK A01 T03150125  RH  031%=      5-min Rain = 0
KAM1 120039Z 17015KT 32/13 A3006 RMK A01 T03150126  RH  031%=      5-min Rain = 0
KAM1 120040Z 16014KT 32/13 A3006 RMK A01 T03150125  RH  031%=      5-min Rain = 0
KAM1 120041Z 16015KT 31/13 A3006 RMK A01 T03140125  RH  031%=      5-min Rain = 0
KAM1 120042Z 16019G24KT 31/12 A3006 RMK A01 T03140124  RH  031%=      5-min Rain = 0
KAM1 120043Z 16018KT 31/12 A3006 RMK A01 T03130123  RH  031%=      5-min Rain = 0
KAM1 120044Z 17018KT 31/12 A3006 RMK A01 T03130123  RH  031%=      5-min Rain = 0
KAM1 120045Z 17014KT 31/12 A3006 RMK A01 T03120123  RH  031%=      5-min Rain = 0
KAM1 120046Z 17015KT 31/12 A3006 RMK A01 T03120124  RH  032%=      5-min Rain = 0
KAM1 120047Z 17015KT 31/12 A3006 RMK A01 T03110123  RH  032%=      5-min Rain = 0
KAM1 120048Z 17013KT 31/12 A3006 RMK A01 T03110123  RH  032%=      5-min Rain = 0
KAM1 120049Z 16011KT 31/12 A3006 RMK A01 T03100123  RH  032%=      5-min Rain = 0
KAM1 120050Z 16014G19KT 31/12 A3006 RMK A01 T03100124  RH  032%=      5-min Rain = 0
KAM1 120051Z 16018KT 31/12 A3006 RMK A01 T03100124  RH  032%=      5-min Rain = 0
KAM1 120052Z 16017KT 31/12 A3006 RMK A01 T03100122  RH  032%=      5-min Rain = 0
KAM1 120053Z 16016KT 31/12 A3006 RMK A01 T03100122  RH  032%=      5-min Rain = 0
KAM1 120054Z 16017KT 31/12 A3006 RMK A01 T03100122  RH  032%=      5-min Rain = 0
KAM1 120055Z 16016KT 31/12 A3006 RMK A01 T03100121  RH  031%=      5-min Rain = 0
KAM1 120056Z 17014KT 31/12 A3006 RMK A01 T03100121  RH  031%=      5-min Rain = 0
KAM1 120057Z 16013KT 31/12 A3006 RMK A01 T03100121  RH  032%=      5-min Rain = 0
KAM1 120058Z 15012KT 31/12 A3006 RMK A01 T03100122  RH  032%=      5-min Rain = 0
KAM1 120059Z 16013KT 31/12 A3006 RMK A01 T03090122  RH  032%=      5-min Rain = 0
KAM1 120100Z 15016KT 31/12 A3006 RMK A01 T03090121  RH  031%=      5-min Rain = 0
KAM1 120101Z 16016KT 31/12 A3006 RMK A01 T03100121  RH  031%=      5-min Rain = 0
KAM1 120102Z 16017KT 31/12 A3006 RMK A01 T03100121  RH  031%=      5-min Rain = 0
KAM1 120103Z 16017KT 31/12 A3006 RMK A01 T03100121  RH  031%=      5-min Rain = 0
KAM1 120104Z 18014KT 31/12 A3006 RMK A01 T03100122  RH  032%=      5-min Rain = 0
KAM1 120105Z 18016KT 31/12 A3006 RMK A01 T03100122  RH  032%=      5-min Rain = 0
KAM1 120106Z 18014KT 31/12 A3006 RMK A01 T03100122  RH  031%=      5-min Rain = 0
KAM1 120107Z 17012KT 31/12 A3006 RMK A01 T03100122  RH  032%=      5-min Rain = 0
KAM1 120108Z 16014G19KT 31/12 A3006 RMK A01 T03110122  RH  032%=      5-min Rain = 0
KAM1 120109Z 16017KT 31/12 A3006 RMK A01 T03110120  RH  031%=      5-min Rain = 0
KAM1 120110Z 17015KT 31/12 A3006 RMK A01 T03110120  RH  031%=      5-min Rain = 0
KAM1 120111Z 17015KT 31/12 A3006 RMK A01 T03110121  RH  031%=      5-min Rain = 0
KAM1 120112Z 17018KT 31/12 A3006 RMK A01 T03100120  RH  031%=      5-min Rain = 0
KAM1 120113Z 16017KT 31/12 A3006 RMK A01 T03090119  RH  031%=      5-min Rain = 0
KAM1 120114Z 16016KT 31/12 A3006 RMK A01 T03090119  RH  031%=      5-min Rain = 0
KAM1 120115Z 16013KT 31/12 A3006 RMK A01 T03090120  RH  031%=      5-min Rain = 0
KAM1 120116Z 15016KT 31/12 A3006 RMK A01 T03080120  RH  031%=      5-min Rain = 0
KAM1 120117Z 15016KT 31/12 A3006 RMK A01 T03080119  RH  031%=      5-min Rain = 0
KAM1 120118Z 15015KT 31/12 A3006 RMK A01 T03070119  RH  031%=      5-min Rain = 0
KAM1 120119Z 15017G22KT 31/12 A3006 RMK A01 T03070120  RH  032%=      5-min Rain = 0
KAM1 120120Z 16015KT 31/12 A3006 RMK A01 T03070120  RH  032%=      5-min Rain = 0
KAM1 120121Z 17013G19KT 31/12 A3006 RMK A01 T03070120  RH  032%=      5-min Rain = 0
KAM1 120122Z 16011KT 31/12 A3006 RMK A01 T03070121  RH  032%=      5-min Rain = 0
KAM1 120123Z 16012KT 31/12 A3006 RMK A01 T03060121  RH  032%=      5-min Rain = 0
KAM1 120124Z 16013KT 31/12 A3006 RMK A01 T03060121  RH  032%=      5-min Rain = 0
KAM1 120125Z 16013KT 31/12 A3006 RMK A01 T03060121  RH  032%=      5-min Rain = 0
KAM1 120126Z 16013KT 31/12 A3006 RMK A01 T03060121  RH  032%=      5-min Rain = 0
KAM1 120127Z 16013KT 31/12 A3006 RMK A01 T03060121  RH  032%=      5-min Rain = 0
KAM1 120128Z 16012KT 31/12 A3006 RMK A01 T03050120  RH  032%=      5-min Rain = 0
KAM1 120129Z 17010KT 30/12 A3006 RMK A01 T03040121  RH  032%=      5-min Rain = 0
KAM1 120130Z 17013KT 30/12 A3006 RMK A01 T03030121  RH  033%=      5-min Rain = 0
KAM1 120131Z 17012KT 30/12 A3006 RMK A01 T03030121  RH  033%=      5-min Rain = 0
KAM1 120132Z 17013KT 30/12 A3006 RMK A01 T03020120  RH  033%=      5-min Rain = 0
KAM1 120133Z 16011KT 30/12 A3006 RMK A01 T03020120  RH  033%=      5-min Rain = 0
KAM1 120134Z 16012KT 30/12 A3006 RMK A01 T03010120  RH  033%=      5-min Rain = 0
KAM1 120135Z 17015KT 30/12 A3006 RMK A01 T03010119  RH  033%=      5-min Rain = 0
KAM1 120136Z 17013KT 30/12 A3006 RMK A01 T03010119  RH  033%=      5-min Rain = 0
KAM1 120137Z 17013KT 30/12 A3006 RMK A01 T03010119  RH  033%=      5-min Rain = 0
KAM1 120138Z 17012KT 30/12 A3006 RMK A01 T03000119  RH  033%=      5-min Rain = 0
KAM1 120139Z 17013KT 30/12 A3006 RMK A01 T03000118  RH  033%=      5-min Rain = 0
KAM1 120140Z 17012KT 30/12 A3006 RMK A01 T02990118  RH  033%=      5-min Rain = 0
KAM1 120141Z 17012KT 30/12 A3006 RMK A01 T02990118  RH  033%=      5-min Rain = 0
KAM1 120142Z 17012KT 30/12 A3006 RMK A01 T02980118  RH  033%=      5-min Rain = 0
KAM1 120143Z 16010KT 30/12 A3007 RMK A01 T02980118  RH  033%=      5-min Rain = 0
KAM1 120144Z 17010KT 30/12 A3007 RMK A01 T02970119  RH  033%=      5-min Rain = 0
KAM1 120145Z 17010KT 30/12 A3007 RMK A01 T02950119  RH  034%=      5-min Rain = 0
KAM1 120146Z 17012KT 30/12 A3007 RMK A01 T02950118  RH  034%=      5-min Rain = 0
KAM1 120147Z 17011KT 30/12 A3007 RMK A01 T02950118  RH  034%=      5-min Rain = 0
KAM1 120148Z 17012KT 30/12 A3007 RMK A01 T02950118  RH  034%=      5-min Rain = 0
KAM1 120149Z 17011KT 30/12 A3007 RMK A01 T02950118  RH  033%=      5-min Rain = 0
KAM1 120150Z 17010KT 30/12 A3007 RMK A01 T02950118  RH  034%=      5-min Rain = 0
KAM1 120151Z 17010KT 30/12 A3007 RMK A01 T02950119  RH  034%=      5-min Rain = 0
KAM1 120152Z 17010KT 29/12 A3007 RMK A01 T02940119  RH  034%=      5-min Rain = 0
KAM1 120153Z 17010KT 29/12 A3007 RMK A01 T02940119  RH  034%=      5-min Rain = 0
KAM1 120154Z 17011KT 29/12 A3007 RMK A01 T02930119  RH  034%=      5-min Rain = 0
KAM1 120155Z 17011KT 29/12 A3007 RMK A01 T02930119  RH  034%=      5-min Rain = 0
KAM1 120156Z 17012KT 29/12 A3007 RMK A01 T02930119  RH  034%=      5-min Rain = 0
KAM1 120157Z 17012KT 29/12 A3007 RMK A01 T02940119  RH  034%=      5-min Rain = 0
KAM1 120158Z 17011KT 29/12 A3007 RMK A01 T02940119  RH  034%=      5-min Rain = 0
KAM1 120159Z 17010KT 29/12 A3007 RMK A01 T02940119  RH  034%=      5-min Rain = 0
KAM1 120200Z 17011KT 29/12 A3007 RMK A01 T02940119  RH  034%=      5-min Rain = 0
KAM1 120201Z 17012KT 29/12 A3007 RMK A01 T02930119  RH  034%=      5-min Rain = 0
KAM1 120202Z 16011KT 29/12 A3007 RMK A01 T02930119  RH  034%=      5-min Rain = 0
KAM1 120203Z 17010KT 29/12 A3007 RMK A01 T02930119  RH  034%=      5-min Rain = 0
KAM1 120204Z 17009KT 29/12 A3008 RMK A01 T02930120  RH  034%=      5-min Rain = 0
KAM1 120205Z 17011KT 29/12 A3008 RMK A01 T02920120  RH  035%=      5-min Rain = 0
KAM1 120206Z 17010KT 29/12 A3008 RMK A01 T02910120  RH  035%=      5-min Rain = 0
KAM1 120207Z 17010KT 29/12 A3008 RMK A01 T02900120  RH  035%=      5-min Rain = 0
KAM1 120208Z 17011KT 29/12 A3008 RMK A01 T02900120  RH  035%=      5-min Rain = 0
KAM1 120209Z 17010KT 29/12 A3008 RMK A01 T02900121  RH  035%=      5-min Rain = 0
KAM1 120210Z 17011KT 29/12 A3008 RMK A01 T02900121  RH  035%=      5-min Rain = 0
KAM1 120211Z 17011KT 29/12 A3008 RMK A01 T02900121  RH  035%=      5-min Rain = 0
KAM1 120212Z 17011KT 29/12 A3008 RMK A01 T02900121  RH  035%=      5-min Rain = 0
KAM1 120213Z 17011KT 29/12 A3008 RMK A01 T02910121  RH  035%=      5-min Rain = 0
KAM1 120214Z 17011KT 29/12 A3008 RMK A01 T02910121  RH  035%=      5-min Rain = 0
KAM1 120215Z 17009KT 29/12 A3008 RMK A01 T02910122  RH  035%=      5-min Rain = 0
KAM1 120216Z 17011KT 29/12 A3008 RMK A01 T02900122  RH  035%=      5-min Rain = 0
KAM1 120217Z 17010KT 29/12 A3008 RMK A01 T02900122  RH  035%=      5-min Rain = 0
KAM1 120218Z 18010KT 29/12 A3008 RMK A01 T02900122  RH  035%=      5-min Rain = 0
KAM1 120219Z 17010KT 29/12 A3008 RMK A01 T02890122  RH  036%=      5-min Rain = 0
KAM1 120220Z 17011KT 29/12 A3008 RMK A01 T02890122  RH  036%=      5-min Rain = 0
KAM1 120221Z 17013KT 29/12 A3008 RMK A01 T02890122  RH  036%=      5-min Rain = 0
KAM1 120222Z 17012KT 29/12 A3008 RMK A01 T02900122  RH  035%=      5-min Rain = 0
KAM1 120223Z 17011KT 29/12 A3008 RMK A01 T02900122  RH  035%=      5-min Rain = 0
KAM1 120224Z 17011KT 29/12 A3009 RMK A01 T02910122  RH  035%=      5-min Rain = 0
KAM1 120225Z 17012KT 29/12 A3008 RMK A01 T02910122  RH  035%=      5-min Rain = 0
KAM1 120226Z 17010KT 29/12 A3009 RMK A01 T02910122  RH  035%=      5-min Rain = 0
KAM1 120227Z 17010KT 29/12 A3009 RMK A01 T02910122  RH  035%=      5-min Rain = 0
KAM1 120228Z 17010KT 29/12 A3009 RMK A01 T02900122  RH  035%=      5-min Rain = 0
KAM1 120229Z 17010KT 29/12 A3009 RMK A01 T02900122  RH  035%=      5-min Rain = 0
KAM1 120230Z 17012KT 29/12 A3009 RMK A01 T02900122  RH  036%=      5-min Rain = 0
KAM1 120231Z 17011KT 29/12 A3009 RMK A01 T02900122  RH  036%=      5-min Rain = 0
KAM1 120232Z 16010KT 29/12 A3009 RMK A01 T02900122  RH  036%=      5-min Rain = 0
KAM1 120233Z 16010KT 29/12 A3009 RMK A01 T02900122  RH  036%=      5-min Rain = 0
KAM1 120234Z 16009KT 29/12 A3009 RMK A01 T02900122  RH  036%=      5-min Rain = 0
KAM1 120235Z 17011KT 29/12 A3009 RMK A01 T02890122  RH  036%=      5-min Rain = 0
KAM1 120236Z 16010KT 29/12 A3009 RMK A01 T02880122  RH  036%=      5-min Rain = 0
KAM1 120237Z 17011KT 29/12 A3009 RMK A01 T02880122  RH  036%=      5-min Rain = 0
KAM1 120238Z 17010KT 29/12 A3009 RMK A01 T02880122  RH  036%=      5-min Rain = 0
KAM1 120239Z 17011KT 29/12 A3009 RMK A01 T02880122  RH  036%=      5-min Rain = 0
KAM1 120240Z 17010KT 29/12 A3009 RMK A01 T02870122  RH  036%=      5-min Rain = 0
KAM1 120241Z 17010KT 29/12 A3009 RMK A01 T02870122  RH  036%=      5-min Rain = 0
KAM1 120242Z 17010KT 29/12 A3009 RMK A01 T02870123  RH  036%=      5-min Rain = 0
KAM1 120243Z 16010KT 29/12 A3009 RMK A01 T02870123  RH  036%=      5-min Rain = 0
KAM1 120244Z 17010KT 29/12 A3009 RMK A01 T02870123  RH  036%=      5-min Rain = 0
KAM1 120245Z 17011KT 29/12 A3009 RMK A01 T02860123  RH  036%=      5-min Rain = 0
KAM1 120246Z 16010KT 29/12 A3009 RMK A01 T02860122  RH  036%=      5-min Rain = 0
KAM1 120247Z 17010KT 29/12 A3009 RMK A01 T02860122  RH  036%=      5-min Rain = 0
KAM1 120248Z 17010KT 29/12 A3009 RMK A01 T02860123  RH  036%=      5-min Rain = 0
KAM1 120249Z 17010KT 29/12 A3009 RMK A01 T02860122  RH  036%=      5-min Rain = 0
KAM1 120250Z 17010KT 29/12 A3009 RMK A01 T02860123  RH  036%=      5-min Rain = 0
KAM1 120251Z 16010KT 29/12 A3009 RMK A01 T02860122  RH  036%=      5-min Rain = 0
KAM1 120252Z 16010KT 29/12 A3009 RMK A01 T02860122  RH  036%=      5-min Rain = 0
KAM1 120253Z 16011KT 29/12 A3009 RMK A01 T02860122  RH  036%=      5-min Rain = 0
KAM1 120254Z 16009KT 29/12 A3009 RMK A01 T02870122  RH  036%=      5-min Rain = 0
KAM1 120255Z 16011KT 29/12 A3009 RMK A01 T02870122  RH  036%=      5-min Rain = 0
KAM1 120256Z 16011KT 29/12 A3009 RMK A01 T02870122  RH  036%=      5-min Rain = 0
KAM1 120257Z 16011KT 29/12 A3009 RMK A01 T02870122  RH  036%=      5-min Rain = 0
KAM1 120258Z 16012KT 29/12 A3009 RMK A01 T02870121  RH  036%=      5-min Rain = 0
KAM1 120259Z 16010KT 29/12 A301 RMK A01 T02880122  RH  036%=      5-min Rain = 0
KAM1 120300Z 16011KT 29/12 A301 RMK A01 T02880122  RH  036%=      5-min Rain = 0
KAM1 120301Z 16011KT 29/12 A301 RMK A01 T02880122  RH  036%=      5-min Rain = 0
KAM1 120302Z 16010KT 29/12 A301 RMK A01 T02880122  RH  036%=      5-min Rain = 0
KAM1 120303Z 16010KT 29/12 A301 RMK A01 T02870122  RH  036%=      5-min Rain = 0
KAM1 120304Z 16010KT 29/12 A301 RMK A01 T02870122  RH  036%=      5-min Rain = 0
KAM1 120305Z 16011KT 29/12 A301 RMK A01 T02870122  RH  036%=      5-min Rain = 0
KAM1 120306Z 16009KT 29/12 A301 RMK A01 T02870122  RH  036%=      5-min Rain = 0
KAM1 120307Z 16009KT 29/12 A301 RMK A01 T02860123  RH  036%=      5-min Rain = 0
KAM1 120308Z 16011KT 29/12 A301 RMK A01 T02860122  RH  036%=      5-min Rain = 0
KAM1 120309Z 16011KT 29/12 A301 RMK A01 T02860122  RH  036%=      5-min Rain = 0
KAM1 120310Z 16012KT 29/12 A301 RMK A01 T02860122  RH  036%=      5-min Rain = 0
KAM1 120311Z 16009KT 29/12 A301 RMK A01 T02860122  RH  036%=      5-min Rain = 0
KAM1 120312Z 16010KT 29/12 A301 RMK A01 T02870123  RH  036%=      5-min Rain = 0
KAM1 120313Z 16013KT 29/12 A301 RMK A01 T02860122  RH  036%=      5-min Rain = 0
KAM1 120314Z 16012KT 29/12 A301 RMK A01 T02860122  RH  036%=      5-min Rain = 0
KAM1 120315Z 16011KT 29/12 A301 RMK A01 T02870122  RH  036%=      5-min Rain = 0
KAM1 120316Z 16011KT 29/12 A301 RMK A01 T02870122  RH  036%=      5-min Rain = 0
KAM1 120317Z 16013KT 29/12 A301 RMK A01 T02870122  RH  036%=      5-min Rain = 0
KAM1 120318Z 16011KT 29/12 A301 RMK A01 T02870121  RH  036%=      5-min Rain = 0
KAM1 120319Z 16010KT 29/12 A3011 RMK A01 T02870122  RH  036%=      5-min Rain = 0
KAM1 120320Z 16012KT 29/12 A3011 RMK A01 T02870122  RH  036%=      5-min Rain = 0
KAM1 120321Z 16011KT 29/12 A3011 RMK A01 T02860122  RH  036%=      5-min Rain = 0
KAM1 120322Z 16012KT 29/12 A3011 RMK A01 T02860122  RH  036%=      5-min Rain = 0
KAM1 120323Z 16011KT 29/12 A3011 RMK A01 T02860122  RH  036%=      5-min Rain = 0
KAM1 120324Z 16011KT 29/12 A3011 RMK A01 T02860122  RH  036%=      5-min Rain = 0
KAM1 120325Z 16010KT 29/12 A3011 RMK A01 T02850122  RH  036%=      5-min Rain = 0
KAM1 120326Z 16009KT 29/12 A3011 RMK A01 T02850122  RH  037%=      5-min Rain = 0
KAM1 120327Z 16011KT 29/12 A3011 RMK A01 T02850123  RH  037%=      5-min Rain = 0
KAM1 120328Z 16012KT 28/12 A3011 RMK A01 T02840122  RH  037%=      5-min Rain = 0
KAM1 120329Z 16011KT 28/12 A3011 RMK A01 T02840122  RH  037%=      5-min Rain = 0
KAM1 120330Z 16012KT 28/12 A3011 RMK A01 T02840122  RH  037%=      5-min Rain = 0
KAM1 120331Z 16009KT 29/12 A3011 RMK A01 T02850123  RH  037%=      5-min Rain = 0
KAM1 120332Z 16011KT 28/12 A3011 RMK A01 T02840123  RH  037%=      5-min Rain = 0
KAM1 120333Z 16011KT 28/12 A3011 RMK A01 T02840123  RH  037%=      5-min Rain = 0
KAM1 120334Z 16011KT 28/12 A3011 RMK A01 T02840123  RH  037%=      5-min Rain = 0
KAM1 120335Z 16010KT 28/12 A3011 RMK A01 T02840123  RH  037%=      5-min Rain = 0
KAM1 120336Z 16011KT 28/12 A3011 RMK A01 T02830123  RH  037%=      5-min Rain = 0
KAM1 120337Z 16011KT 28/12 A3011 RMK A01 T02830123  RH  037%=      5-min Rain = 0
KAM1 120338Z 16011KT 28/12 A3011 RMK A01 T02830123  RH  037%=      5-min Rain = 0
KAM1 120339Z 16011KT 28/12 A3011 RMK A01 T02830123  RH  037%=      5-min Rain = 0
KAM1 120340Z 16011KT 28/12 A3011 RMK A01 T02830123  RH  037%=      5-min Rain = 0
KAM1 120341Z 16013KT 28/12 A3011 RMK A01 T02840123  RH  037%=      5-min Rain = 0
KAM1 120342Z 16010KT 28/12 A3011 RMK A01 T02840124  RH  037%=      5-min Rain = 0
KAM1 120343Z 16012KT 28/12 A3011 RMK A01 T02840124  RH  037%=      5-min Rain = 0
KAM1 120344Z 17011KT 28/12 A3011 RMK A01 T02840124  RH  037%=      5-min Rain = 0
KAM1 120345Z 16011KT 28/12 A3011 RMK A01 T02840124  RH  037%=      5-min Rain = 0
KAM1 120346Z 16012KT 28/12 A3011 RMK A01 T02840124  RH  037%=      5-min Rain = 0
KAM1 120347Z 16011KT 28/12 A3011 RMK A01 T02840124  RH  037%=      5-min Rain = 0
KAM1 120348Z 16011KT 28/12 A3011 RMK A01 T02840124  RH  037%=      5-min Rain = 0
KAM1 120349Z 16011KT 28/13 A3011 RMK A01 T02840125  RH  037%=      5-min Rain = 0
KAM1 120350Z 17010KT 28/13 A3011 RMK A01 T02840125  RH  037%=      5-min Rain = 0
KAM1 120351Z 17011KT 28/13 A3011 RMK A01 T02840125  RH  037%=      5-min Rain = 0
KAM1 120352Z 17010KT 28/12 A3011 RMK A01 T02830124  RH  037%=      5-min Rain = 0
KAM1 120353Z 17011KT 28/13 A3012 RMK A01 T02830125  RH  038%=      5-min Rain = 0
KAM1 120354Z 18009KT 28/12 A3012 RMK A01 T02830124  RH  038%=      5-min Rain = 0
KAM1 120355Z 17009KT 28/13 A3012 RMK A01 T02820125  RH  038%=      5-min Rain = 0
KAM1 120356Z 18010KT 28/13 A3012 RMK A01 T02820125  RH  038%=      5-min Rain = 0
KAM1 120357Z 17010KT 28/12 A3012 RMK A01 T02810124  RH  038%=      5-min Rain = 0
KAM1 120358Z 17011KT 28/12 A3012 RMK A01 T02800124  RH  038%=      5-min Rain = 0
KAM1 120359Z 17010KT 28/12 A3012 RMK A01 T02800123  RH  038%=      5-min Rain = 0
KAM1 120400Z 17011KT 28/12 A3012 RMK A01 T02800123  RH  038%=      5-min Rain = 0
KAM1 120401Z 17009KT 28/12 A3012 RMK A01 T02800123  RH  038%=      5-min Rain = 0
KAM1 120402Z 17011KT 28/12 A3012 RMK A01 T02800124  RH  038%=      5-min Rain = 0
KAM1 120403Z 17011KT 28/12 A3012 RMK A01 T02800124  RH  038%=      5-min Rain = 0
KAM1 120404Z 17012KT 28/12 A3012 RMK A01 T02790124  RH  038%=      5-min Rain = 0
KAM1 120405Z 17011KT 28/12 A3012 RMK A01 T02790124  RH  038%=      5-min Rain = 0
KAM1 120406Z 17012KT 28/12 A3012 RMK A01 T02790124  RH  038%=      5-min Rain = 0
KAM1 120407Z 17010KT 28/13 A3012 RMK A01 T02790125  RH  038%=      5-min Rain = 0
KAM1 120408Z 17010KT 28/13 A3012 RMK A01 T02790125  RH  039%=      5-min Rain = 0
KAM1 120409Z 17011KT 28/13 A3012 RMK A01 T02780125  RH  039%=      5-min Rain = 0
KAM1 120410Z 17012KT 28/13 A3012 RMK A01 T02770125  RH  039%=      5-min Rain = 0
KAM1 120411Z 17012KT 28/13 A3012 RMK A01 T02770125  RH  039%=      5-min Rain = 0
KAM1 120412Z 17012KT 28/12 A3012 RMK A01 T02770124  RH  039%=      5-min Rain = 0
KAM1 120413Z 17011KT 28/13 A3012 RMK A01 T02770125  RH  039%=      5-min Rain = 0
KAM1 120414Z 17010KT 28/13 A3012 RMK A01 T02760125  RH  039%=      5-min Rain = 0
KAM1 120415Z 17011KT 28/13 A3012 RMK A01 T02760125  RH  039%=      5-min Rain = 0
KAM1 120416Z 17010KT 28/13 A3012 RMK A01 T02750125  RH  040%=      5-min Rain = 0
KAM1 120417Z 17013KT 27/13 A3012 RMK A01 T02740125  RH  040%=      5-min Rain = 0
KAM1 120418Z 17011KT 27/13 A3012 RMK A01 T02740126  RH  040%=      5-min Rain = 0
KAM1 120419Z 17012KT 27/13 A3012 RMK A01 T02740126  RH  040%=      5-min Rain = 0
KAM1 120420Z 17011KT 27/13 A3012 RMK A01 T02730126  RH  040%=      5-min Rain = 0
KAM1 120421Z 17013KT 27/13 A3012 RMK A01 T02730127  RH  040%=      5-min Rain = 0
KAM1 120422Z 17011KT 27/13 A3012 RMK A01 T02720127  RH  041%=      5-min Rain = 0
KAM1 120423Z 17012KT 27/13 A3012 RMK A01 T02720128  RH  041%=      5-min Rain = 0
KAM1 120424Z 17010KT 27/13 A3012 RMK A01 T02720128  RH  041%=      5-min Rain = 0
KAM1 120425Z 17011KT 27/13 A3012 RMK A01 T02720128  RH  041%=      5-min Rain = 0
KAM1 120426Z 17010KT 27/13 A3012 RMK A01 T02710128  RH  041%=      5-min Rain = 0
KAM1 120427Z 17010KT 27/13 A3012 RMK A01 T02710129  RH  041%=      5-min Rain = 0
KAM1 120428Z 17011KT 27/13 A3012 RMK A01 T02700129  RH  041%=      5-min Rain = 0
KAM1 120429Z 17012KT 27/13 A3012 RMK A01 T02700129  RH  042%=      5-min Rain = 0
KAM1 120430Z 17011KT 27/13 A3012 RMK A01 T02700130  RH  042%=      5-min Rain = 0
KAM1 120431Z 17011KT 27/13 A3012 RMK A01 T02700130  RH  042%=      5-min Rain = 0
KAM1 120432Z 17012KT 27/13 A3012 RMK A01 T02700130  RH  042%=      5-min Rain = 0
KAM1 120433Z 17012KT 27/13 A3012 RMK A01 T02700130  RH  042%=      5-min Rain = 0
KAM1 120434Z 17012KT 27/13 A3012 RMK A01 T02690130  RH  042%=      5-min Rain = 0
KAM1 120435Z 17010KT 27/13 A3012 RMK A01 T02690130  RH  042%=      5-min Rain = 0
KAM1 120436Z 17008KT 27/13 A3012 RMK A01 T02690131  RH  042%=      5-min Rain = 0
KAM1 120437Z 17011KT 27/13 A3012 RMK A01 T02690131  RH  043%=      5-min Rain = 0
KAM1 120438Z 17011KT 27/13 A3012 RMK A01 T02680131  RH  043%=      5-min Rain = 0
KAM1 120439Z 17012KT 27/13 A3011 RMK A01 T02690132  RH  043%=      5-min Rain = 0
KAM1 120440Z 17012KT 27/13 A3011 RMK A01 T02680132  RH  043%=      5-min Rain = 0
KAM1 120441Z 17011KT 27/13 A3012 RMK A01 T02680132  RH  043%=      5-min Rain = 0
KAM1 120442Z 17011KT 27/13 A3012 RMK A01 T02680132  RH  043%=      5-min Rain = 0
KAM1 120443Z 17012KT 27/13 A3012 RMK A01 T02680132  RH  043%=      5-min Rain = 0
KAM1 120444Z 17011KT 27/13 A3012 RMK A01 T02680133  RH  043%=      5-min Rain = 0
KAM1 120445Z 17011KT 27/13 A3012 RMK A01 T02680133  RH  043%=      5-min Rain = 0
KAM1 120446Z 17009KT 27/13 A3012 RMK A01 T02670133  RH  043%=      5-min Rain = 0
KAM1 120447Z 17009KT 27/13 A3012 RMK A01 T02670133  RH  044%=      5-min Rain = 0
KAM1 120448Z 17012KT 27/13 A3012 RMK A01 T02660133  RH  044%=      5-min Rain = 0
KAM1 120449Z 18012KT 27/13 A3012 RMK A01 T02660133  RH  044%=      5-min Rain = 0
KAM1 120450Z 17011KT 27/13 A3012 RMK A01 T02670133  RH  044%=      5-min Rain = 0
KAM1 120451Z 18011KT 27/13 A3012 RMK A01 T02670133  RH  044%=      5-min Rain = 0
KAM1 120452Z 17010KT 27/13 A3012 RMK A01 T02670134  RH  044%=      5-min Rain = 0
KAM1 120453Z 17010KT 27/13 A3012 RMK A01 T02660134  RH  044%=      5-min Rain = 0
KAM1 120454Z 17010KT 27/13 A3012 RMK A01 T02660134  RH  044%=      5-min Rain = 0
KAM1 120455Z 16009KT 27/13 A3012 RMK A01 T02660134  RH  044%=      5-min Rain = 0
KAM1 120456Z 17009KT 27/13 A3012 RMK A01 T02660134  RH  044%=      5-min Rain = 0
KAM1 120457Z 17010KT 27/13 A3012 RMK A01 T02650134  RH  044%=      5-min Rain = 0
KAM1 120458Z 17010KT 27/14 A3012 RMK A01 T02650135  RH  045%=      5-min Rain = 0
KAM1 120459Z 17012KT 27/14 A3012 RMK A01 T02650135  RH  045%=      5-min Rain = 0

Page generated in 0.0386 seconds.